<?xml version="1.0" encoding="UTF-8"?>
<gpx xmlns="http://www.topografix.com/GPX/1/1" xmlns:xsi="http://www.w3.org/2001/XMLSchema-instance" version="1.1" xsi:schemaLocation="http://www.topografix.com/GPX/1/1 http://www.topografix.com/GPX/1/1/gpx.xsd">
  <metadata>
    <name>Austria Triathlon Podersdorf - Halbdistanz Aquabike</name>
  </metadata>
  <trk>
    <name>Austria Triathlon Podersdorf - Halbdistanz Aquabike</name>
    <trkseg>
      <trkpt lat="47.859577" lon="16.830653">
        <ele>117.519784</ele>
        <time>2021-09-05T10:38:00.000Z</time>
      </trkpt>
      <trkpt lat="47.859525" lon="16.830741">
        <ele>117.519772</ele>
        <time>2021-09-05T10:38:01.000Z</time>
      </trkpt>
      <trkpt lat="47.85945" lon="16.830907">
        <ele>117.519783</ele>
        <time>2021-09-05T10:38:02.000Z</time>
      </trkpt>
      <trkpt lat="47.859333" lon="16.831134">
        <ele>117.519778</ele>
        <time>2021-09-05T10:38:04.000Z</time>
      </trkpt>
      <trkpt lat="47.859301" lon="16.831201">
        <ele>117.519777</ele>
        <time>2021-09-05T10:38:05.000Z</time>
      </trkpt>
      <trkpt lat="47.85929" lon="16.831217">
        <ele>117.519774</ele>
        <time>2021-09-05T10:38:05.000Z</time>
      </trkpt>
      <trkpt lat="47.85924" lon="16.831273">
        <ele>117.519772</ele>
        <time>2021-09-05T10:38:06.000Z</time>
      </trkpt>
      <trkpt lat="47.859213" lon="16.831302">
        <ele>117.519789</ele>
        <time>2021-09-05T10:38:06.000Z</time>
      </trkpt>
      <trkpt lat="47.859174" lon="16.831415">
        <ele>117.519785</ele>
        <time>2021-09-05T10:38:07.000Z</time>
      </trkpt>
      <trkpt lat="47.859126" lon="16.831487">
        <ele>117.519771</ele>
        <time>2021-09-05T10:38:08.000Z</time>
      </trkpt>
      <trkpt lat="47.859131" lon="16.831483">
        <ele>117.519784</ele>
        <time>2021-09-05T10:38:08.000Z</time>
      </trkpt>
      <trkpt lat="47.858591" lon="16.830897">
        <ele>117.721928</ele>
        <time>2021-09-05T10:38:15.000Z</time>
      </trkpt>
      <trkpt lat="47.858592" lon="16.830895">
        <ele>117.72192</ele>
        <time>2021-09-05T10:38:15.000Z</time>
      </trkpt>
      <trkpt lat="47.85856" lon="16.830827">
        <ele>117.743022</ele>
        <time>2021-09-05T10:38:16.000Z</time>
      </trkpt>
      <trkpt lat="47.858567" lon="16.830826">
        <ele>117.743022</ele>
        <time>2021-09-05T10:38:16.000Z</time>
      </trkpt>
      <trkpt lat="47.8585" lon="16.830834">
        <ele>117.773777</ele>
        <time>2021-09-05T10:38:17.000Z</time>
      </trkpt>
      <trkpt lat="47.858503" lon="16.830841">
        <ele>117.773778</ele>
        <time>2021-09-05T10:38:17.000Z</time>
      </trkpt>
      <trkpt lat="47.858434" lon="16.830807">
        <ele>117.797493</ele>
        <time>2021-09-05T10:38:18.000Z</time>
      </trkpt>
      <trkpt lat="47.858409" lon="16.83089">
        <ele>117.828085</ele>
        <time>2021-09-05T10:38:19.000Z</time>
      </trkpt>
      <trkpt lat="47.858405" lon="16.830896">
        <ele>117.828071</ele>
        <time>2021-09-05T10:38:19.000Z</time>
      </trkpt>
      <trkpt lat="47.857636" lon="16.832325">
        <ele>118.300807</ele>
        <time>2021-09-05T10:38:33.000Z</time>
      </trkpt>
      <trkpt lat="47.857494" lon="16.83255">
        <ele>118.339115</ele>
        <time>2021-09-05T10:38:35.000Z</time>
      </trkpt>
      <trkpt lat="47.856078" lon="16.834811">
        <ele>118.812318</ele>
        <time>2021-09-05T10:38:58.000Z</time>
      </trkpt>
      <trkpt lat="47.855511" lon="16.835597">
        <ele>119.052494</ele>
        <time>2021-09-05T10:39:07.000Z</time>
      </trkpt>
      <trkpt lat="47.854635" lon="16.836669">
        <ele>119.347184</ele>
        <time>2021-09-05T10:39:20.000Z</time>
      </trkpt>
      <trkpt lat="47.854464" lon="16.836891">
        <ele>119.402028</ele>
        <time>2021-09-05T10:39:23.000Z</time>
      </trkpt>
      <trkpt lat="47.854399" lon="16.837105">
        <ele>119.439814</ele>
        <time>2021-09-05T10:39:25.000Z</time>
      </trkpt>
      <trkpt lat="47.85433" lon="16.837119">
        <ele>119.45693</ele>
        <time>2021-09-05T10:39:26.000Z</time>
      </trkpt>
      <trkpt lat="47.854179" lon="16.837277">
        <ele>119.498185</ele>
        <time>2021-09-05T10:39:28.000Z</time>
      </trkpt>
      <trkpt lat="47.854059" lon="16.837428">
        <ele>119.533696</ele>
        <time>2021-09-05T10:39:30.000Z</time>
      </trkpt>
      <trkpt lat="47.853965" lon="16.837536">
        <ele>119.563023</ele>
        <time>2021-09-05T10:39:31.000Z</time>
      </trkpt>
      <trkpt lat="47.853709" lon="16.837835">
        <ele>119.593717</ele>
        <time>2021-09-05T10:39:35.000Z</time>
      </trkpt>
      <trkpt lat="47.85357" lon="16.838">
        <ele>119.595916</ele>
        <time>2021-09-05T10:39:37.000Z</time>
      </trkpt>
      <trkpt lat="47.852858" lon="16.838881">
        <ele>119.607723</ele>
        <time>2021-09-05T10:39:47.000Z</time>
      </trkpt>
      <trkpt lat="47.852747" lon="16.839025">
        <ele>119.609616</ele>
        <time>2021-09-05T10:39:49.000Z</time>
      </trkpt>
      <trkpt lat="47.852546" lon="16.839235">
        <ele>119.612665</ele>
        <time>2021-09-05T10:39:52.000Z</time>
      </trkpt>
      <trkpt lat="47.852496" lon="16.839289">
        <ele>119.613428</ele>
        <time>2021-09-05T10:39:53.000Z</time>
      </trkpt>
      <trkpt lat="47.852392" lon="16.839425">
        <ele>119.630527</ele>
        <time>2021-09-05T10:39:55.000Z</time>
      </trkpt>
      <trkpt lat="47.852196" lon="16.839489">
        <ele>119.65962</ele>
        <time>2021-09-05T10:39:57.000Z</time>
      </trkpt>
      <trkpt lat="47.852047" lon="16.839453">
        <ele>119.682864</ele>
        <time>2021-09-05T10:39:59.000Z</time>
      </trkpt>
      <trkpt lat="47.851994" lon="16.839499">
        <ele>119.692637</ele>
        <time>2021-09-05T10:40:00.000Z</time>
      </trkpt>
      <trkpt lat="47.8518" lon="16.839696">
        <ele>119.729451</ele>
        <time>2021-09-05T10:40:03.000Z</time>
      </trkpt>
      <trkpt lat="47.851528" lon="16.839925">
        <ele>119.77681</ele>
        <time>2021-09-05T10:40:06.000Z</time>
      </trkpt>
      <trkpt lat="47.850651" lon="16.840724">
        <ele>119.841648</ele>
        <time>2021-09-05T10:40:17.000Z</time>
      </trkpt>
      <trkpt lat="47.850405" lon="16.840941">
        <ele>119.799976</ele>
        <time>2021-09-05T10:40:20.000Z</time>
      </trkpt>
      <trkpt lat="47.850215" lon="16.841277">
        <ele>119.75427</ele>
        <time>2021-09-05T10:40:23.000Z</time>
      </trkpt>
      <trkpt lat="47.850152" lon="16.841474">
        <ele>119.73221</ele>
        <time>2021-09-05T10:40:25.000Z</time>
      </trkpt>
      <trkpt lat="47.850006" lon="16.842657">
        <ele>119.617769</ele>
        <time>2021-09-05T10:40:34.000Z</time>
      </trkpt>
      <trkpt lat="47.848606" lon="16.851989">
        <ele>120.189593</ele>
        <time>2021-09-05T10:41:45.000Z</time>
      </trkpt>
      <trkpt lat="47.848492" lon="16.852661">
        <ele>120.198778</ele>
        <time>2021-09-05T10:41:50.000Z</time>
      </trkpt>
      <trkpt lat="47.847781" lon="16.857442">
        <ele>119.791786</ele>
        <time>2021-09-05T10:42:27.000Z</time>
      </trkpt>
      <trkpt lat="47.847159" lon="16.861534">
        <ele>120.638231</ele>
        <time>2021-09-05T10:42:58.000Z</time>
      </trkpt>
      <trkpt lat="47.846972" lon="16.862769">
        <ele>120.751057</ele>
        <time>2021-09-05T10:43:07.000Z</time>
      </trkpt>
      <trkpt lat="47.846455" lon="16.866013">
        <ele>120.627674</ele>
        <time>2021-09-05T10:43:32.000Z</time>
      </trkpt>
      <trkpt lat="47.845531" lon="16.871995">
        <ele>120.584224</ele>
        <time>2021-09-05T10:44:18.000Z</time>
      </trkpt>
      <trkpt lat="47.845453" lon="16.872454">
        <ele>120.635827</ele>
        <time>2021-09-05T10:44:22.000Z</time>
      </trkpt>
      <trkpt lat="47.845367" lon="16.872962">
        <ele>120.693486</ele>
        <time>2021-09-05T10:44:26.000Z</time>
      </trkpt>
      <trkpt lat="47.845173" lon="16.874264">
        <ele>120.834526</ele>
        <time>2021-09-05T10:44:36.000Z</time>
      </trkpt>
      <trkpt lat="47.844013" lon="16.880911">
        <ele>121.411905</ele>
        <time>2021-09-05T10:45:27.000Z</time>
      </trkpt>
      <trkpt lat="47.843816" lon="16.882047">
        <ele>121.380323</ele>
        <time>2021-09-05T10:45:36.000Z</time>
      </trkpt>
      <trkpt lat="47.843317" lon="16.885049">
        <ele>120.793181</ele>
        <time>2021-09-05T10:45:59.000Z</time>
      </trkpt>
      <trkpt lat="47.843227" lon="16.886006">
        <ele>120.661581</ele>
        <time>2021-09-05T10:46:06.000Z</time>
      </trkpt>
      <trkpt lat="47.843233" lon="16.886473">
        <ele>120.597884</ele>
        <time>2021-09-05T10:46:09.000Z</time>
      </trkpt>
      <trkpt lat="47.84328" lon="16.886915">
        <ele>120.538267</ele>
        <time>2021-09-05T10:46:12.000Z</time>
      </trkpt>
      <trkpt lat="47.843361" lon="16.887346">
        <ele>120.580093</ele>
        <time>2021-09-05T10:46:15.000Z</time>
      </trkpt>
      <trkpt lat="47.843572" lon="16.88806">
        <ele>120.691828</ele>
        <time>2021-09-05T10:46:21.000Z</time>
      </trkpt>
      <trkpt lat="47.844014" lon="16.888927">
        <ele>120.850212</ele>
        <time>2021-09-05T10:46:29.000Z</time>
      </trkpt>
      <trkpt lat="47.84623" lon="16.892127">
        <ele>121.88925</ele>
        <time>2021-09-05T10:47:03.000Z</time>
      </trkpt>
      <trkpt lat="47.846304" lon="16.892204">
        <ele>121.916338</ele>
        <time>2021-09-05T10:47:04.000Z</time>
      </trkpt>
      <trkpt lat="47.847501" lon="16.89396">
        <ele>122.367984</ele>
        <time>2021-09-05T10:47:23.000Z</time>
      </trkpt>
      <trkpt lat="47.847682" lon="16.894278">
        <ele>122.426571</ele>
        <time>2021-09-05T10:47:26.000Z</time>
      </trkpt>
      <trkpt lat="47.847825" lon="16.894662">
        <ele>122.490349</ele>
        <time>2021-09-05T10:47:29.000Z</time>
      </trkpt>
      <trkpt lat="47.847914" lon="16.89509">
        <ele>122.541167</ele>
        <time>2021-09-05T10:47:32.000Z</time>
      </trkpt>
      <trkpt lat="47.847963" lon="16.8955">
        <ele>122.521716</ele>
        <time>2021-09-05T10:47:35.000Z</time>
      </trkpt>
      <trkpt lat="47.847943" lon="16.896132">
        <ele>122.491795</ele>
        <time>2021-09-05T10:47:40.000Z</time>
      </trkpt>
      <trkpt lat="47.847844" lon="16.896789">
        <ele>122.460799</ele>
        <time>2021-09-05T10:47:45.000Z</time>
      </trkpt>
      <trkpt lat="47.847674" lon="16.897231">
        <ele>122.436762</ele>
        <time>2021-09-05T10:47:49.000Z</time>
      </trkpt>
      <trkpt lat="47.84745" lon="16.897639">
        <ele>122.390396</ele>
        <time>2021-09-05T10:47:53.000Z</time>
      </trkpt>
      <trkpt lat="47.845779" lon="16.900179">
        <ele>121.616466</ele>
        <time>2021-09-05T10:48:20.000Z</time>
      </trkpt>
      <trkpt lat="47.844885" lon="16.901535">
        <ele>121.077522</ele>
        <time>2021-09-05T10:48:34.000Z</time>
      </trkpt>
      <trkpt lat="47.844682" lon="16.90184">
        <ele>120.933829</ele>
        <time>2021-09-05T10:48:37.000Z</time>
      </trkpt>
      <trkpt lat="47.842714" lon="16.904843">
        <ele>119.832365</ele>
        <time>2021-09-05T10:49:08.000Z</time>
      </trkpt>
      <trkpt lat="47.839739" lon="16.909339">
        <ele>120.49212</ele>
        <time>2021-09-05T10:49:55.000Z</time>
      </trkpt>
      <trkpt lat="47.83886" lon="16.910648">
        <ele>120.746902</ele>
        <time>2021-09-05T10:50:09.000Z</time>
      </trkpt>
      <trkpt lat="47.838873" lon="16.910655">
        <ele>120.746903</ele>
        <time>2021-09-05T10:50:09.000Z</time>
      </trkpt>
      <trkpt lat="47.838794" lon="16.910745">
        <ele>120.765926</ele>
        <time>2021-09-05T10:50:10.000Z</time>
      </trkpt>
      <trkpt lat="47.838781" lon="16.910771">
        <ele>120.770215</ele>
        <time>2021-09-05T10:50:10.000Z</time>
      </trkpt>
      <trkpt lat="47.838625" lon="16.911008">
        <ele>120.813915</ele>
        <time>2021-09-05T10:50:12.000Z</time>
      </trkpt>
      <trkpt lat="47.838396" lon="16.91139">
        <ele>120.87171</ele>
        <time>2021-09-05T10:50:16.000Z</time>
      </trkpt>
      <trkpt lat="47.838338" lon="16.911314">
        <ele>120.885763</ele>
        <time>2021-09-05T10:50:17.000Z</time>
      </trkpt>
      <trkpt lat="47.838014" lon="16.910867">
        <ele>120.962187</ele>
        <time>2021-09-05T10:50:22.000Z</time>
      </trkpt>
      <trkpt lat="47.832371" lon="16.902709">
        <ele>121.177973</ele>
        <time>2021-09-05T10:51:49.000Z</time>
      </trkpt>
      <trkpt lat="47.832288" lon="16.902583">
        <ele>121.177849</ele>
        <time>2021-09-05T10:51:50.000Z</time>
      </trkpt>
      <trkpt lat="47.832084" lon="16.902313">
        <ele>121.170484</ele>
        <time>2021-09-05T10:51:53.000Z</time>
      </trkpt>
      <trkpt lat="47.83162" lon="16.901627">
        <ele>121.146571</ele>
        <time>2021-09-05T10:52:00.000Z</time>
      </trkpt>
      <trkpt lat="47.830961" lon="16.900695">
        <ele>121.11379</ele>
        <time>2021-09-05T10:52:10.000Z</time>
      </trkpt>
      <trkpt lat="47.826901" lon="16.894812">
        <ele>121.380306</ele>
        <time>2021-09-05T10:53:13.000Z</time>
      </trkpt>
      <trkpt lat="47.826625" lon="16.894447">
        <ele>121.379418</ele>
        <time>2021-09-05T10:53:17.000Z</time>
      </trkpt>
      <trkpt lat="47.82598" lon="16.893497">
        <ele>121.377158</ele>
        <time>2021-09-05T10:53:27.000Z</time>
      </trkpt>
      <trkpt lat="47.824808" lon="16.891772">
        <ele>121.37326</ele>
        <time>2021-09-05T10:53:45.000Z</time>
      </trkpt>
      <trkpt lat="47.822271" lon="16.895659">
        <ele>121.583984</ele>
        <time>2021-09-05T10:54:25.000Z</time>
      </trkpt>
      <trkpt lat="47.819806" lon="16.899408">
        <ele>120.42558</ele>
        <time>2021-09-05T10:55:04.000Z</time>
      </trkpt>
      <trkpt lat="47.818706" lon="16.897802">
        <ele>120.428798</ele>
        <time>2021-09-05T10:55:21.000Z</time>
      </trkpt>
      <trkpt lat="47.81829" lon="16.897041">
        <ele>120.514125</ele>
        <time>2021-09-05T10:55:28.000Z</time>
      </trkpt>
      <trkpt lat="47.813526" lon="16.885822">
        <ele>119.930343</ele>
        <time>2021-09-05T10:57:07.000Z</time>
      </trkpt>
      <trkpt lat="47.81323" lon="16.885228">
        <ele>119.957119</ele>
        <time>2021-09-05T10:57:13.000Z</time>
      </trkpt>
      <trkpt lat="47.808574" lon="16.877077">
        <ele>120.74487</ele>
        <time>2021-09-05T10:58:33.000Z</time>
      </trkpt>
      <trkpt lat="47.806853" lon="16.875507">
        <ele>121.067219</ele>
        <time>2021-09-05T10:58:55.000Z</time>
      </trkpt>
      <trkpt lat="47.805362" lon="16.874182">
        <ele>120.883211</ele>
        <time>2021-09-05T10:59:14.000Z</time>
      </trkpt>
      <trkpt lat="47.805101" lon="16.873964">
        <ele>120.754329</ele>
        <time>2021-09-05T10:59:17.000Z</time>
      </trkpt>
      <trkpt lat="47.804195" lon="16.873187">
        <ele>120.303284</ele>
        <time>2021-09-05T10:59:29.000Z</time>
      </trkpt>
      <trkpt lat="47.803751" lon="16.872962">
        <ele>120.127423</ele>
        <time>2021-09-05T10:59:34.000Z</time>
      </trkpt>
      <trkpt lat="47.803306" lon="16.872832">
        <ele>119.956695</ele>
        <time>2021-09-05T10:59:39.000Z</time>
      </trkpt>
      <trkpt lat="47.802908" lon="16.872822">
        <ele>119.804272</ele>
        <time>2021-09-05T10:59:43.000Z</time>
      </trkpt>
      <trkpt lat="47.802507" lon="16.872898">
        <ele>119.652597</ele>
        <time>2021-09-05T10:59:47.000Z</time>
      </trkpt>
      <trkpt lat="47.802035" lon="16.873083">
        <ele>119.538416</ele>
        <time>2021-09-05T10:59:52.000Z</time>
      </trkpt>
      <trkpt lat="47.801656" lon="16.87338">
        <ele>119.444368</ele>
        <time>2021-09-05T10:59:57.000Z</time>
      </trkpt>
      <trkpt lat="47.8013" lon="16.873759">
        <ele>119.347503</ele>
        <time>2021-09-05T11:00:02.000Z</time>
      </trkpt>
      <trkpt lat="47.800165" lon="16.875326">
        <ele>118.901833</ele>
        <time>2021-09-05T11:00:19.000Z</time>
      </trkpt>
      <trkpt lat="47.799792" lon="16.875687">
        <ele>118.759435</ele>
        <time>2021-09-05T11:00:24.000Z</time>
      </trkpt>
      <trkpt lat="47.799352" lon="16.875977">
        <ele>118.658984</ele>
        <time>2021-09-05T11:00:29.000Z</time>
      </trkpt>
      <trkpt lat="47.798758" lon="16.87617">
        <ele>118.614887</ele>
        <time>2021-09-05T11:00:36.000Z</time>
      </trkpt>
      <trkpt lat="47.798373" lon="16.876189">
        <ele>118.587814</ele>
        <time>2021-09-05T11:00:40.000Z</time>
      </trkpt>
      <trkpt lat="47.797583" lon="16.875935">
        <ele>118.581985</ele>
        <time>2021-09-05T11:00:49.000Z</time>
      </trkpt>
      <trkpt lat="47.797364" lon="16.875812">
        <ele>118.625248</ele>
        <time>2021-09-05T11:00:52.000Z</time>
      </trkpt>
      <trkpt lat="47.794153" lon="16.873952">
        <ele>119.216016</ele>
        <time>2021-09-05T11:01:30.000Z</time>
      </trkpt>
      <trkpt lat="47.792158" lon="16.872789">
        <ele>119.051268</ele>
        <time>2021-09-05T11:01:54.000Z</time>
      </trkpt>
      <trkpt lat="47.791049" lon="16.872099">
        <ele>118.730358</ele>
        <time>2021-09-05T11:02:07.000Z</time>
      </trkpt>
      <trkpt lat="47.790476" lon="16.871698">
        <ele>118.616597</ele>
        <time>2021-09-05T11:02:14.000Z</time>
      </trkpt>
      <trkpt lat="47.790095" lon="16.871395">
        <ele>118.537999</ele>
        <time>2021-09-05T11:02:19.000Z</time>
      </trkpt>
      <trkpt lat="47.78909" lon="16.87063">
        <ele>118.452331</ele>
        <time>2021-09-05T11:02:32.000Z</time>
      </trkpt>
      <trkpt lat="47.788584" lon="16.870183">
        <ele>118.50743</ele>
        <time>2021-09-05T11:02:39.000Z</time>
      </trkpt>
      <trkpt lat="47.788198" lon="16.869723">
        <ele>118.552159</ele>
        <time>2021-09-05T11:02:44.000Z</time>
      </trkpt>
      <trkpt lat="47.787664" lon="16.868764">
        <ele>118.555059</ele>
        <time>2021-09-05T11:02:53.000Z</time>
      </trkpt>
      <trkpt lat="47.78748" lon="16.868334">
        <ele>118.540192</ele>
        <time>2021-09-05T11:02:57.000Z</time>
      </trkpt>
      <trkpt lat="47.786352" lon="16.86463">
        <ele>118.328584</ele>
        <time>2021-09-05T11:03:27.000Z</time>
      </trkpt>
      <trkpt lat="47.786053" lon="16.863737">
        <ele>118.348469</ele>
        <time>2021-09-05T11:03:34.000Z</time>
      </trkpt>
      <trkpt lat="47.785365" lon="16.861657">
        <ele>118.470571</ele>
        <time>2021-09-05T11:03:51.000Z</time>
      </trkpt>
      <trkpt lat="47.784539" lon="16.859729">
        <ele>118.749209</ele>
        <time>2021-09-05T11:04:08.000Z</time>
      </trkpt>
      <trkpt lat="47.783863" lon="16.858125">
        <ele>118.843734</ele>
        <time>2021-09-05T11:04:22.000Z</time>
      </trkpt>
      <trkpt lat="47.781362" lon="16.852251">
        <ele>117.810266</ele>
        <time>2021-09-05T11:05:14.000Z</time>
      </trkpt>
      <trkpt lat="47.780845" lon="16.851176">
        <ele>117.692464</ele>
        <time>2021-09-05T11:05:24.000Z</time>
      </trkpt>
      <trkpt lat="47.780556" lon="16.850692">
        <ele>117.70562</ele>
        <time>2021-09-05T11:05:29.000Z</time>
      </trkpt>
      <trkpt lat="47.779489" lon="16.849766">
        <ele>117.858385</ele>
        <time>2021-09-05T11:05:43.000Z</time>
      </trkpt>
      <trkpt lat="47.779195" lon="16.849548">
        <ele>117.902515</ele>
        <time>2021-09-05T11:05:47.000Z</time>
      </trkpt>
      <trkpt lat="47.778509" lon="16.849111">
        <ele>118.029022</ele>
        <time>2021-09-05T11:05:55.000Z</time>
      </trkpt>
      <trkpt lat="47.777853" lon="16.848718">
        <ele>118.149225</ele>
        <time>2021-09-05T11:06:03.000Z</time>
      </trkpt>
      <trkpt lat="47.775811" lon="16.847362">
        <ele>117.764894</ele>
        <time>2021-09-05T11:06:28.000Z</time>
      </trkpt>
      <trkpt lat="47.775501" lon="16.84716">
        <ele>117.549188</ele>
        <time>2021-09-05T11:06:32.000Z</time>
      </trkpt>
      <trkpt lat="47.77393" lon="16.845891">
        <ele>116.195111</ele>
        <time>2021-09-05T11:06:52.000Z</time>
      </trkpt>
      <trkpt lat="47.773647" lon="16.845671">
        <ele>115.838655</ele>
        <time>2021-09-05T11:06:56.000Z</time>
      </trkpt>
      <trkpt lat="47.773348" lon="16.845502">
        <ele>115.481285</ele>
        <time>2021-09-05T11:07:00.000Z</time>
      </trkpt>
      <trkpt lat="47.77332" lon="16.845367">
        <ele>115.374405</ele>
        <time>2021-09-05T11:07:01.000Z</time>
      </trkpt>
      <trkpt lat="47.773067" lon="16.844708">
        <ele>114.803966</ele>
        <time>2021-09-05T11:07:07.000Z</time>
      </trkpt>
      <trkpt lat="47.773037" lon="16.844485">
        <ele>114.663954</ele>
        <time>2021-09-05T11:07:09.000Z</time>
      </trkpt>
      <trkpt lat="47.773049" lon="16.84429">
        <ele>114.591267</ele>
        <time>2021-09-05T11:07:10.000Z</time>
      </trkpt>
      <trkpt lat="47.773205" lon="16.844088">
        <ele>114.477246</ele>
        <time>2021-09-05T11:07:12.000Z</time>
      </trkpt>
      <trkpt lat="47.773389" lon="16.843724">
        <ele>114.305009</ele>
        <time>2021-09-05T11:07:15.000Z</time>
      </trkpt>
      <trkpt lat="47.773544" lon="16.843148">
        <ele>114.073684</ele>
        <time>2021-09-05T11:07:20.000Z</time>
      </trkpt>
      <trkpt lat="47.773749" lon="16.841732">
        <ele>113.908383</ele>
        <time>2021-09-05T11:07:31.000Z</time>
      </trkpt>
      <trkpt lat="47.7739" lon="16.841169">
        <ele>114.206635</ele>
        <time>2021-09-05T11:07:36.000Z</time>
      </trkpt>
      <trkpt lat="47.774018" lon="16.840971">
        <ele>114.344808</ele>
        <time>2021-09-05T11:07:38.000Z</time>
      </trkpt>
      <trkpt lat="47.774348" lon="16.840562">
        <ele>114.659885</ele>
        <time>2021-09-05T11:07:43.000Z</time>
      </trkpt>
      <trkpt lat="47.775265" lon="16.83961">
        <ele>115.513995</ele>
        <time>2021-09-05T11:07:55.000Z</time>
      </trkpt>
      <trkpt lat="47.776025" lon="16.838861">
        <ele>116.213896</ele>
        <time>2021-09-05T11:08:05.000Z</time>
      </trkpt>
      <trkpt lat="47.776492" lon="16.838435">
        <ele>116.554248</ele>
        <time>2021-09-05T11:08:11.000Z</time>
      </trkpt>
      <trkpt lat="47.777796" lon="16.837296">
        <ele>117.242805</ele>
        <time>2021-09-05T11:08:28.000Z</time>
      </trkpt>
      <trkpt lat="47.77902" lon="16.836316">
        <ele>117.451053</ele>
        <time>2021-09-05T11:08:43.000Z</time>
      </trkpt>
      <trkpt lat="47.779062" lon="16.836272">
        <ele>117.460205</ele>
        <time>2021-09-05T11:08:44.000Z</time>
      </trkpt>
      <trkpt lat="47.779722" lon="16.83573">
        <ele>117.404522</ele>
        <time>2021-09-05T11:08:52.000Z</time>
      </trkpt>
      <trkpt lat="47.780941" lon="16.835561">
        <ele>117.059157</ele>
        <time>2021-09-05T11:09:06.000Z</time>
      </trkpt>
      <trkpt lat="47.781418" lon="16.83562">
        <ele>116.948939</ele>
        <time>2021-09-05T11:09:11.000Z</time>
      </trkpt>
      <trkpt lat="47.781587" lon="16.835516">
        <ele>116.91548</ele>
        <time>2021-09-05T11:09:13.000Z</time>
      </trkpt>
      <trkpt lat="47.781738" lon="16.835335">
        <ele>116.880756</ele>
        <time>2021-09-05T11:09:15.000Z</time>
      </trkpt>
      <trkpt lat="47.781806" lon="16.835062">
        <ele>116.844155</ele>
        <time>2021-09-05T11:09:17.000Z</time>
      </trkpt>
      <trkpt lat="47.781849" lon="16.833992">
        <ele>116.707816</ele>
        <time>2021-09-05T11:09:25.000Z</time>
      </trkpt>
      <trkpt lat="47.781943" lon="16.833559">
        <ele>116.700796</ele>
        <time>2021-09-05T11:09:28.000Z</time>
      </trkpt>
      <trkpt lat="47.7821" lon="16.8332">
        <ele>116.79954</ele>
        <time>2021-09-05T11:09:31.000Z</time>
      </trkpt>
      <trkpt lat="47.781983" lon="16.832905">
        <ele>116.878376</ele>
        <time>2021-09-05T11:09:34.000Z</time>
      </trkpt>
      <trkpt lat="47.781954" lon="16.832816">
        <ele>116.900921</ele>
        <time>2021-09-05T11:09:35.000Z</time>
      </trkpt>
      <trkpt lat="47.781938" lon="16.83274">
        <ele>116.918305</ele>
        <time>2021-09-05T11:09:36.000Z</time>
      </trkpt>
      <trkpt lat="47.782368" lon="16.830537">
        <ele>117.398823</ele>
        <time>2021-09-05T11:09:53.000Z</time>
      </trkpt>
      <trkpt lat="47.78251" lon="16.830305">
        <ele>117.448871</ele>
        <time>2021-09-05T11:09:55.000Z</time>
      </trkpt>
      <trkpt lat="47.783686" lon="16.829319">
        <ele>117.693573</ele>
        <time>2021-09-05T11:10:10.000Z</time>
      </trkpt>
      <trkpt lat="47.783701" lon="16.829237">
        <ele>117.68569</ele>
        <time>2021-09-05T11:10:11.000Z</time>
      </trkpt>
      <trkpt lat="47.783985" lon="16.826511">
        <ele>117.501192</ele>
        <time>2021-09-05T11:10:32.000Z</time>
      </trkpt>
      <trkpt lat="47.783945" lon="16.826343">
        <ele>117.502842</ele>
        <time>2021-09-05T11:10:33.000Z</time>
      </trkpt>
      <trkpt lat="47.783803" lon="16.826177">
        <ele>117.505168</ele>
        <time>2021-09-05T11:10:35.000Z</time>
      </trkpt>
      <trkpt lat="47.783387" lon="16.826105">
        <ele>117.511302</ele>
        <time>2021-09-05T11:10:40.000Z</time>
      </trkpt>
      <trkpt lat="47.782845" lon="16.826079">
        <ele>117.51884</ele>
        <time>2021-09-05T11:10:46.000Z</time>
      </trkpt>
      <trkpt lat="47.78287" lon="16.825886">
        <ele>117.520673</ele>
        <time>2021-09-05T11:10:47.000Z</time>
      </trkpt>
      <trkpt lat="47.783419" lon="16.823275">
        <ele>118.354562</ele>
        <time>2021-09-05T11:11:07.000Z</time>
      </trkpt>
      <trkpt lat="47.784007" lon="16.820553">
        <ele>119.41981</ele>
        <time>2021-09-05T11:11:28.000Z</time>
      </trkpt>
      <trkpt lat="47.787055" lon="16.821915">
        <ele>118.722398</ele>
        <time>2021-09-05T11:12:03.000Z</time>
      </trkpt>
      <trkpt lat="47.790976" lon="16.823652">
        <ele>117.784143</ele>
        <time>2021-09-05T11:12:48.000Z</time>
      </trkpt>
      <trkpt lat="47.791788" lon="16.824016">
        <ele>117.797616</ele>
        <time>2021-09-05T11:12:57.000Z</time>
      </trkpt>
      <trkpt lat="47.792225" lon="16.824212">
        <ele>117.805004</ele>
        <time>2021-09-05T11:13:02.000Z</time>
      </trkpt>
      <trkpt lat="47.792305" lon="16.824247">
        <ele>117.806279</ele>
        <time>2021-09-05T11:13:03.000Z</time>
      </trkpt>
      <trkpt lat="47.795534" lon="16.825684">
        <ele>118.130202</ele>
        <time>2021-09-05T11:13:40.000Z</time>
      </trkpt>
      <trkpt lat="47.798367" lon="16.826956">
        <ele>118.598801</ele>
        <time>2021-09-05T11:14:13.000Z</time>
      </trkpt>
      <trkpt lat="47.803515" lon="16.829266">
        <ele>119.352781</ele>
        <time>2021-09-05T11:15:13.000Z</time>
      </trkpt>
      <trkpt lat="47.805762" lon="16.830274">
        <ele>119.151455</ele>
        <time>2021-09-05T11:15:39.000Z</time>
      </trkpt>
      <trkpt lat="47.806421" lon="16.827107">
        <ele>119.012649</ele>
        <time>2021-09-05T11:16:04.000Z</time>
      </trkpt>
      <trkpt lat="47.80691" lon="16.824738">
        <ele>118.981277</ele>
        <time>2021-09-05T11:16:23.000Z</time>
      </trkpt>
      <trkpt lat="47.807411" lon="16.822438">
        <ele>118.910279</ele>
        <time>2021-09-05T11:16:41.000Z</time>
      </trkpt>
      <trkpt lat="47.807444" lon="16.822227">
        <ele>118.903149</ele>
        <time>2021-09-05T11:16:43.000Z</time>
      </trkpt>
      <trkpt lat="47.807572" lon="16.822261">
        <ele>118.897003</ele>
        <time>2021-09-05T11:16:44.000Z</time>
      </trkpt>
      <trkpt lat="47.813851" lon="16.823918">
        <ele>118.514865</ele>
        <time>2021-09-05T11:17:55.000Z</time>
      </trkpt>
      <trkpt lat="47.818179" lon="16.825042">
        <ele>117.831987</ele>
        <time>2021-09-05T11:18:44.000Z</time>
      </trkpt>
      <trkpt lat="47.820828" lon="16.825729">
        <ele>117.860362</ele>
        <time>2021-09-05T11:19:14.000Z</time>
      </trkpt>
      <trkpt lat="47.823283" lon="16.826256">
        <ele>118.944299</ele>
        <time>2021-09-05T11:19:42.000Z</time>
      </trkpt>
      <trkpt lat="47.824167" lon="16.826599">
        <ele>119.353488</ele>
        <time>2021-09-05T11:19:52.000Z</time>
      </trkpt>
      <trkpt lat="47.824498" lon="16.826783">
        <ele>119.474828</ele>
        <time>2021-09-05T11:19:56.000Z</time>
      </trkpt>
      <trkpt lat="47.824586" lon="16.826826">
        <ele>119.511331</ele>
        <time>2021-09-05T11:19:57.000Z</time>
      </trkpt>
      <trkpt lat="47.824856" lon="16.827003">
        <ele>119.612299</ele>
        <time>2021-09-05T11:20:00.000Z</time>
      </trkpt>
      <trkpt lat="47.825295" lon="16.82732">
        <ele>119.780361</ele>
        <time>2021-09-05T11:20:05.000Z</time>
      </trkpt>
      <trkpt lat="47.826209" lon="16.828225">
        <ele>119.4929</ele>
        <time>2021-09-05T11:20:17.000Z</time>
      </trkpt>
      <trkpt lat="47.828166" lon="16.830802">
        <ele>118.208235</ele>
        <time>2021-09-05T11:20:46.000Z</time>
      </trkpt>
      <trkpt lat="47.828922" lon="16.831535">
        <ele>117.783193</ele>
        <time>2021-09-05T11:20:56.000Z</time>
      </trkpt>
      <trkpt lat="47.829226" lon="16.831798">
        <ele>117.620907</ele>
        <time>2021-09-05T11:21:00.000Z</time>
      </trkpt>
      <trkpt lat="47.829608" lon="16.832092">
        <ele>117.419893</ele>
        <time>2021-09-05T11:21:05.000Z</time>
      </trkpt>
      <trkpt lat="47.831809" lon="16.833759">
        <ele>116.712057</ele>
        <time>2021-09-05T11:21:32.000Z</time>
      </trkpt>
      <trkpt lat="47.832084" lon="16.833977">
        <ele>116.705272</ele>
        <time>2021-09-05T11:21:35.000Z</time>
      </trkpt>
      <trkpt lat="47.832686" lon="16.834512">
        <ele>116.689728</ele>
        <time>2021-09-05T11:21:43.000Z</time>
      </trkpt>
      <trkpt lat="47.833438" lon="16.835348">
        <ele>116.738076</ele>
        <time>2021-09-05T11:21:53.000Z</time>
      </trkpt>
      <trkpt lat="47.833815" lon="16.83583">
        <ele>116.77335</ele>
        <time>2021-09-05T11:21:59.000Z</time>
      </trkpt>
      <trkpt lat="47.83477" lon="16.837225">
        <ele>116.868917</ele>
        <time>2021-09-05T11:22:14.000Z</time>
      </trkpt>
      <trkpt lat="47.835377" lon="16.838206">
        <ele>116.933375</ele>
        <time>2021-09-05T11:22:24.000Z</time>
      </trkpt>
      <trkpt lat="47.835398" lon="16.838248">
        <ele>116.935934</ele>
        <time>2021-09-05T11:22:24.000Z</time>
      </trkpt>
      <trkpt lat="47.835503" lon="16.838397">
        <ele>116.972152</ele>
        <time>2021-09-05T11:22:26.000Z</time>
      </trkpt>
      <trkpt lat="47.835534" lon="16.838435">
        <ele>116.995059</ele>
        <time>2021-09-05T11:22:26.000Z</time>
      </trkpt>
      <trkpt lat="47.835712" lon="16.838722">
        <ele>117.146422</ele>
        <time>2021-09-05T11:22:29.000Z</time>
      </trkpt>
      <trkpt lat="47.836149" lon="16.839272">
        <ele>117.466865</ele>
        <time>2021-09-05T11:22:35.000Z</time>
      </trkpt>
      <trkpt lat="47.836711" lon="16.839801">
        <ele>117.835464</ele>
        <time>2021-09-05T11:22:42.000Z</time>
      </trkpt>
      <trkpt lat="47.837085" lon="16.840041">
        <ele>118.073784</ele>
        <time>2021-09-05T11:22:47.000Z</time>
      </trkpt>
      <trkpt lat="47.837166" lon="16.840088">
        <ele>118.11797</ele>
        <time>2021-09-05T11:22:48.000Z</time>
      </trkpt>
      <trkpt lat="47.837363" lon="16.840181">
        <ele>118.241167</ele>
        <time>2021-09-05T11:22:50.000Z</time>
      </trkpt>
      <trkpt lat="47.838176" lon="16.840419">
        <ele>118.710484</ele>
        <time>2021-09-05T11:22:59.000Z</time>
      </trkpt>
      <trkpt lat="47.838903" lon="16.840423">
        <ele>119.056997</ele>
        <time>2021-09-05T11:23:07.000Z</time>
      </trkpt>
      <trkpt lat="47.839732" lon="16.840242">
        <ele>119.310737</ele>
        <time>2021-09-05T11:23:16.000Z</time>
      </trkpt>
      <trkpt lat="47.840787" lon="16.839828">
        <ele>119.590207</ele>
        <time>2021-09-05T11:23:28.000Z</time>
      </trkpt>
      <trkpt lat="47.841705" lon="16.839315">
        <ele>119.740603</ele>
        <time>2021-09-05T11:23:39.000Z</time>
      </trkpt>
      <trkpt lat="47.843654" lon="16.837467">
        <ele>119.889091</ele>
        <time>2021-09-05T11:24:05.000Z</time>
      </trkpt>
      <trkpt lat="47.844216" lon="16.837014">
        <ele>119.893116</ele>
        <time>2021-09-05T11:24:12.000Z</time>
      </trkpt>
      <trkpt lat="47.844369" lon="16.836922">
        <ele>119.894225</ele>
        <time>2021-09-05T11:24:14.000Z</time>
      </trkpt>
      <trkpt lat="47.84448" lon="16.836855">
        <ele>119.894966</ele>
        <time>2021-09-05T11:24:15.000Z</time>
      </trkpt>
      <trkpt lat="47.845318" lon="16.836651">
        <ele>119.899994</ele>
        <time>2021-09-05T11:24:24.000Z</time>
      </trkpt>
      <trkpt lat="47.848642" lon="16.836755">
        <ele>119.892058</ele>
        <time>2021-09-05T11:25:01.000Z</time>
      </trkpt>
      <trkpt lat="47.848928" lon="16.83677">
        <ele>119.878606</ele>
        <time>2021-09-05T11:25:04.000Z</time>
      </trkpt>
      <trkpt lat="47.848982" lon="16.836761">
        <ele>119.867298</ele>
        <time>2021-09-05T11:25:05.000Z</time>
      </trkpt>
      <trkpt lat="47.849052" lon="16.836759">
        <ele>119.856207</ele>
        <time>2021-09-05T11:25:06.000Z</time>
      </trkpt>
      <trkpt lat="47.849496" lon="16.836721">
        <ele>119.765011</ele>
        <time>2021-09-05T11:25:11.000Z</time>
      </trkpt>
      <trkpt lat="47.849656" lon="16.836512">
        <ele>119.725219</ele>
        <time>2021-09-05T11:25:13.000Z</time>
      </trkpt>
      <trkpt lat="47.849708" lon="16.836467">
        <ele>119.711714</ele>
        <time>2021-09-05T11:25:14.000Z</time>
      </trkpt>
      <trkpt lat="47.849807" lon="16.836383">
        <ele>119.690708</ele>
        <time>2021-09-05T11:25:15.000Z</time>
      </trkpt>
      <trkpt lat="47.850154" lon="16.836105">
        <ele>119.612109</ele>
        <time>2021-09-05T11:25:19.000Z</time>
      </trkpt>
      <trkpt lat="47.850546" lon="16.835786">
        <ele>119.525804</ele>
        <time>2021-09-05T11:25:24.000Z</time>
      </trkpt>
      <trkpt lat="47.850687" lon="16.835642">
        <ele>119.500808</ele>
        <time>2021-09-05T11:25:26.000Z</time>
      </trkpt>
      <trkpt lat="47.85101" lon="16.835284">
        <ele>119.442256</ele>
        <time>2021-09-05T11:25:30.000Z</time>
      </trkpt>
      <trkpt lat="47.85114" lon="16.835113">
        <ele>119.415519</ele>
        <time>2021-09-05T11:25:32.000Z</time>
      </trkpt>
      <trkpt lat="47.851651" lon="16.834576">
        <ele>119.324127</ele>
        <time>2021-09-05T11:25:39.000Z</time>
      </trkpt>
      <trkpt lat="47.852379" lon="16.834111">
        <ele>119.170617</ele>
        <time>2021-09-05T11:25:48.000Z</time>
      </trkpt>
      <trkpt lat="47.852467" lon="16.834041">
        <ele>119.145136</ele>
        <time>2021-09-05T11:25:49.000Z</time>
      </trkpt>
      <trkpt lat="47.852531" lon="16.833972">
        <ele>119.126668</ele>
        <time>2021-09-05T11:25:50.000Z</time>
      </trkpt>
      <trkpt lat="47.852746" lon="16.834235">
        <ele>119.060915</ele>
        <time>2021-09-05T11:25:53.000Z</time>
      </trkpt>
      <trkpt lat="47.852868" lon="16.834012">
        <ele>119.018407</ele>
        <time>2021-09-05T11:25:55.000Z</time>
      </trkpt>
      <trkpt lat="47.852983" lon="16.833937">
        <ele>118.987665</ele>
        <time>2021-09-05T11:25:56.000Z</time>
      </trkpt>
      <trkpt lat="47.853043" lon="16.833893">
        <ele>118.972936</ele>
        <time>2021-09-05T11:25:57.000Z</time>
      </trkpt>
      <trkpt lat="47.853363" lon="16.83373">
        <ele>118.893145</ele>
        <time>2021-09-05T11:26:01.000Z</time>
      </trkpt>
      <trkpt lat="47.853447" lon="16.833719">
        <ele>118.875864</ele>
        <time>2021-09-05T11:26:02.000Z</time>
      </trkpt>
      <trkpt lat="47.853727" lon="16.833747">
        <ele>118.793939</ele>
        <time>2021-09-05T11:26:05.000Z</time>
      </trkpt>
      <trkpt lat="47.853829" lon="16.833697">
        <ele>118.760788</ele>
        <time>2021-09-05T11:26:06.000Z</time>
      </trkpt>
      <trkpt lat="47.853891" lon="16.833579">
        <ele>118.731815</ele>
        <time>2021-09-05T11:26:07.000Z</time>
      </trkpt>
      <trkpt lat="47.854254" lon="16.833">
        <ele>118.567194</ele>
        <time>2021-09-05T11:26:13.000Z</time>
      </trkpt>
      <trkpt lat="47.85453" lon="16.832615">
        <ele>118.454047</ele>
        <time>2021-09-05T11:26:17.000Z</time>
      </trkpt>
      <trkpt lat="47.854623" lon="16.832457">
        <ele>118.410799</ele>
        <time>2021-09-05T11:26:19.000Z</time>
      </trkpt>
      <trkpt lat="47.85463" lon="16.832448">
        <ele>118.406122</ele>
        <time>2021-09-05T11:26:19.000Z</time>
      </trkpt>
      <trkpt lat="47.854973" lon="16.831921">
        <ele>118.310165</ele>
        <time>2021-09-05T11:26:24.000Z</time>
      </trkpt>
      <trkpt lat="47.855519" lon="16.831045">
        <ele>118.391587</ele>
        <time>2021-09-05T11:26:33.000Z</time>
      </trkpt>
      <trkpt lat="47.855686" lon="16.830745">
        <ele>118.418644</ele>
        <time>2021-09-05T11:26:36.000Z</time>
      </trkpt>
      <trkpt lat="47.855846" lon="16.830489">
        <ele>118.442583</ele>
        <time>2021-09-05T11:26:39.000Z</time>
      </trkpt>
      <trkpt lat="47.85586" lon="16.830465">
        <ele>118.445315</ele>
        <time>2021-09-05T11:26:39.000Z</time>
      </trkpt>
      <trkpt lat="47.855921" lon="16.830382">
        <ele>118.453291</ele>
        <time>2021-09-05T11:26:40.000Z</time>
      </trkpt>
      <trkpt lat="47.855973" lon="16.830287">
        <ele>118.462147</ele>
        <time>2021-09-05T11:26:41.000Z</time>
      </trkpt>
      <trkpt lat="47.85599" lon="16.830221">
        <ele>118.46737</ele>
        <time>2021-09-05T11:26:42.000Z</time>
      </trkpt>
      <trkpt lat="47.855993" lon="16.830164">
        <ele>118.470842</ele>
        <time>2021-09-05T11:26:42.000Z</time>
      </trkpt>
      <trkpt lat="47.855831" lon="16.829971">
        <ele>118.463198</ele>
        <time>2021-09-05T11:26:44.000Z</time>
      </trkpt>
      <trkpt lat="47.856014" lon="16.829427">
        <ele>118.403472</ele>
        <time>2021-09-05T11:26:49.000Z</time>
      </trkpt>
      <trkpt lat="47.856048" lon="16.829353">
        <ele>118.396325</ele>
        <time>2021-09-05T11:26:50.000Z</time>
      </trkpt>
      <trkpt lat="47.85621" lon="16.82891">
        <ele>118.346714</ele>
        <time>2021-09-05T11:26:54.000Z</time>
      </trkpt>
      <trkpt lat="47.856224" lon="16.82887">
        <ele>118.343112</ele>
        <time>2021-09-05T11:26:54.000Z</time>
      </trkpt>
      <trkpt lat="47.856257" lon="16.828792">
        <ele>118.334011</ele>
        <time>2021-09-05T11:26:55.000Z</time>
      </trkpt>
      <trkpt lat="47.856648" lon="16.829129">
        <ele>118.267339</ele>
        <time>2021-09-05T11:27:00.000Z</time>
      </trkpt>
      <trkpt lat="47.856684" lon="16.829146">
        <ele>118.262693</ele>
        <time>2021-09-05T11:27:00.000Z</time>
      </trkpt>
      <trkpt lat="47.856699" lon="16.829166">
        <ele>118.259377</ele>
        <time>2021-09-05T11:27:00.000Z</time>
      </trkpt>
      <trkpt lat="47.856816" lon="16.82927">
        <ele>118.240575</ele>
        <time>2021-09-05T11:27:02.000Z</time>
      </trkpt>
      <trkpt lat="47.857444" lon="16.829844">
        <ele>118.143284</ele>
        <time>2021-09-05T11:27:10.000Z</time>
      </trkpt>
      <trkpt lat="47.857465" lon="16.829879">
        <ele>118.138739</ele>
        <time>2021-09-05T11:27:10.000Z</time>
      </trkpt>
      <trkpt lat="47.857558" lon="16.829966">
        <ele>118.125312</ele>
        <time>2021-09-05T11:27:11.000Z</time>
      </trkpt>
      <trkpt lat="47.857556" lon="16.830019">
        <ele>118.121286</ele>
        <time>2021-09-05T11:27:11.000Z</time>
      </trkpt>
      <trkpt lat="47.857565" lon="16.830055">
        <ele>118.116718</ele>
        <time>2021-09-05T11:27:11.000Z</time>
      </trkpt>
      <trkpt lat="47.857615" lon="16.830138">
        <ele>118.107704</ele>
        <time>2021-09-05T11:27:12.000Z</time>
      </trkpt>
      <trkpt lat="47.857656" lon="16.830135">
        <ele>118.103121</ele>
        <time>2021-09-05T11:27:12.000Z</time>
      </trkpt>
      <trkpt lat="47.857691" lon="16.830141">
        <ele>118.098168</ele>
        <time>2021-09-05T11:27:12.000Z</time>
      </trkpt>
      <trkpt lat="47.857736" lon="16.830123">
        <ele>118.093226</ele>
        <time>2021-09-05T11:27:13.000Z</time>
      </trkpt>
      <trkpt lat="47.857766" lon="16.830074">
        <ele>118.08825</ele>
        <time>2021-09-05T11:27:13.000Z</time>
      </trkpt>
      <trkpt lat="47.857814" lon="16.830107">
        <ele>118.079819</ele>
        <time>2021-09-05T11:27:14.000Z</time>
      </trkpt>
      <trkpt lat="47.857913" lon="16.830175">
        <ele>118.06575</ele>
        <time>2021-09-05T11:27:15.000Z</time>
      </trkpt>
      <trkpt lat="47.85828" lon="16.830562">
        <ele>118.008488</ele>
        <time>2021-09-05T11:27:20.000Z</time>
      </trkpt>
      <trkpt lat="47.858339" lon="16.830624">
        <ele>117.998557</ele>
        <time>2021-09-05T11:27:21.000Z</time>
      </trkpt>
      <trkpt lat="47.858351" lon="16.830647">
        <ele>117.995583</ele>
        <time>2021-09-05T11:27:21.000Z</time>
      </trkpt>
      <trkpt lat="47.858354" lon="16.830658">
        <ele>117.994277</ele>
        <time>2021-09-05T11:27:21.000Z</time>
      </trkpt>
      <trkpt lat="47.858375" lon="16.830681">
        <ele>117.992083</ele>
        <time>2021-09-05T11:27:21.000Z</time>
      </trkpt>
      <trkpt lat="47.858414" lon="16.830712">
        <ele>117.992644</ele>
        <time>2021-09-05T11:27:21.000Z</time>
      </trkpt>
      <trkpt lat="47.858421" lon="16.830751">
        <ele>117.998115</ele>
        <time>2021-09-05T11:27:21.000Z</time>
      </trkpt>
      <trkpt lat="47.858439" lon="16.830786">
        <ele>118.003786</ele>
        <time>2021-09-05T11:27:21.000Z</time>
      </trkpt>
      <trkpt lat="47.858405" lon="16.830883">
        <ele>118.018202</ele>
        <time>2021-09-05T11:27:22.000Z</time>
      </trkpt>
      <trkpt lat="47.85764" lon="16.832323">
        <ele>118.246156</ele>
        <time>2021-09-05T11:27:36.000Z</time>
      </trkpt>
      <trkpt lat="47.857501" lon="16.83254">
        <ele>118.283373</ele>
        <time>2021-09-05T11:27:38.000Z</time>
      </trkpt>
      <trkpt lat="47.856081" lon="16.834811">
        <ele>118.750078</ele>
        <time>2021-09-05T11:28:01.000Z</time>
      </trkpt>
      <trkpt lat="47.855516" lon="16.835605">
        <ele>119.037493</ele>
        <time>2021-09-05T11:28:10.000Z</time>
      </trkpt>
      <trkpt lat="47.854643" lon="16.836675">
        <ele>119.407121</ele>
        <time>2021-09-05T11:28:23.000Z</time>
      </trkpt>
      <trkpt lat="47.854455" lon="16.836894">
        <ele>119.429859</ele>
        <time>2021-09-05T11:28:26.000Z</time>
      </trkpt>
      <trkpt lat="47.854395" lon="16.837118">
        <ele>119.445516</ele>
        <time>2021-09-05T11:28:28.000Z</time>
      </trkpt>
      <trkpt lat="47.854322" lon="16.837116">
        <ele>119.452617</ele>
        <time>2021-09-05T11:28:29.000Z</time>
      </trkpt>
      <trkpt lat="47.854178" lon="16.837277">
        <ele>119.469729</ele>
        <time>2021-09-05T11:28:31.000Z</time>
      </trkpt>
      <trkpt lat="47.854056" lon="16.837429">
        <ele>119.484451</ele>
        <time>2021-09-05T11:28:33.000Z</time>
      </trkpt>
      <trkpt lat="47.853968" lon="16.83754">
        <ele>119.496623</ele>
        <time>2021-09-05T11:28:34.000Z</time>
      </trkpt>
      <trkpt lat="47.853695" lon="16.837847">
        <ele>119.52931</ele>
        <time>2021-09-05T11:28:38.000Z</time>
      </trkpt>
      <trkpt lat="47.853564" lon="16.837996">
        <ele>119.546165</ele>
        <time>2021-09-05T11:28:40.000Z</time>
      </trkpt>
      <trkpt lat="47.852855" lon="16.838882">
        <ele>119.634351</ele>
        <time>2021-09-05T11:28:50.000Z</time>
      </trkpt>
      <trkpt lat="47.852749" lon="16.839015">
        <ele>119.648319</ele>
        <time>2021-09-05T11:28:52.000Z</time>
      </trkpt>
      <trkpt lat="47.852559" lon="16.839235">
        <ele>119.670912</ele>
        <time>2021-09-05T11:28:55.000Z</time>
      </trkpt>
      <trkpt lat="47.852511" lon="16.839285">
        <ele>119.676684</ele>
        <time>2021-09-05T11:28:56.000Z</time>
      </trkpt>
      <trkpt lat="47.85238" lon="16.839432">
        <ele>119.690657</ele>
        <time>2021-09-05T11:28:58.000Z</time>
      </trkpt>
      <trkpt lat="47.8522" lon="16.839495">
        <ele>119.708742</ele>
        <time>2021-09-05T11:29:00.000Z</time>
      </trkpt>
      <trkpt lat="47.852059" lon="16.839437">
        <ele>119.72319</ele>
        <time>2021-09-05T11:29:02.000Z</time>
      </trkpt>
      <trkpt lat="47.851999" lon="16.839504">
        <ele>119.729267</ele>
        <time>2021-09-05T11:29:03.000Z</time>
      </trkpt>
      <trkpt lat="47.851798" lon="16.839707">
        <ele>119.745327</ele>
        <time>2021-09-05T11:29:06.000Z</time>
      </trkpt>
      <trkpt lat="47.851527" lon="16.839912">
        <ele>119.762864</ele>
        <time>2021-09-05T11:29:09.000Z</time>
      </trkpt>
      <trkpt lat="47.85065" lon="16.840726">
        <ele>119.821113</ele>
        <time>2021-09-05T11:29:20.000Z</time>
      </trkpt>
      <trkpt lat="47.850414" lon="16.840944">
        <ele>119.836562</ele>
        <time>2021-09-05T11:29:23.000Z</time>
      </trkpt>
      <trkpt lat="47.850202" lon="16.841273">
        <ele>119.795133</ele>
        <time>2021-09-05T11:29:26.000Z</time>
      </trkpt>
      <trkpt lat="47.850157" lon="16.841467">
        <ele>119.774862</ele>
        <time>2021-09-05T11:29:28.000Z</time>
      </trkpt>
      <trkpt lat="47.850004" lon="16.842657">
        <ele>119.661425</ele>
        <time>2021-09-05T11:29:37.000Z</time>
      </trkpt>
      <trkpt lat="47.848594" lon="16.851993">
        <ele>120.196401</ele>
        <time>2021-09-05T11:30:48.000Z</time>
      </trkpt>
      <trkpt lat="47.84849" lon="16.852658">
        <ele>120.159515</ele>
        <time>2021-09-05T11:30:53.000Z</time>
      </trkpt>
      <trkpt lat="47.847771" lon="16.857445">
        <ele>119.798467</ele>
        <time>2021-09-05T11:31:30.000Z</time>
      </trkpt>
      <trkpt lat="47.847164" lon="16.861534">
        <ele>120.699351</ele>
        <time>2021-09-05T11:32:01.000Z</time>
      </trkpt>
      <trkpt lat="47.846966" lon="16.862769">
        <ele>120.758599</ele>
        <time>2021-09-05T11:32:10.000Z</time>
      </trkpt>
      <trkpt lat="47.846453" lon="16.866013">
        <ele>120.647071</ele>
        <time>2021-09-05T11:32:35.000Z</time>
      </trkpt>
      <trkpt lat="47.845535" lon="16.871985">
        <ele>120.546221</ele>
        <time>2021-09-05T11:33:21.000Z</time>
      </trkpt>
      <trkpt lat="47.845453" lon="16.872449">
        <ele>120.584578</ele>
        <time>2021-09-05T11:33:25.000Z</time>
      </trkpt>
      <trkpt lat="47.845362" lon="16.872962">
        <ele>120.661325</ele>
        <time>2021-09-05T11:33:29.000Z</time>
      </trkpt>
      <trkpt lat="47.845161" lon="16.874262">
        <ele>120.852275</ele>
        <time>2021-09-05T11:33:39.000Z</time>
      </trkpt>
      <trkpt lat="47.844" lon="16.880898">
        <ele>121.383799</ele>
        <time>2021-09-05T11:34:30.000Z</time>
      </trkpt>
      <trkpt lat="47.843826" lon="16.882051">
        <ele>121.345155</ele>
        <time>2021-09-05T11:34:39.000Z</time>
      </trkpt>
      <trkpt lat="47.843316" lon="16.885043">
        <ele>120.72881</ele>
        <time>2021-09-05T11:35:02.000Z</time>
      </trkpt>
      <trkpt lat="47.84322" lon="16.886005">
        <ele>120.663072</ele>
        <time>2021-09-05T11:35:09.000Z</time>
      </trkpt>
      <trkpt lat="47.84325" lon="16.886485">
        <ele>120.64514</ele>
        <time>2021-09-05T11:35:13.000Z</time>
      </trkpt>
      <trkpt lat="47.843289" lon="16.886925">
        <ele>120.628368</ele>
        <time>2021-09-05T11:35:16.000Z</time>
      </trkpt>
      <trkpt lat="47.843364" lon="16.887341">
        <ele>120.611709</ele>
        <time>2021-09-05T11:35:19.000Z</time>
      </trkpt>
      <trkpt lat="47.84357" lon="16.888055">
        <ele>120.645801</ele>
        <time>2021-09-05T11:35:25.000Z</time>
      </trkpt>
      <trkpt lat="47.844005" lon="16.888936">
        <ele>120.858982</ele>
        <time>2021-09-05T11:35:33.000Z</time>
      </trkpt>
      <trkpt lat="47.846245" lon="16.892143">
        <ele>121.891274</ele>
        <time>2021-09-05T11:36:08.000Z</time>
      </trkpt>
      <trkpt lat="47.846303" lon="16.892207">
        <ele>121.915285</ele>
        <time>2021-09-05T11:36:09.000Z</time>
      </trkpt>
      <trkpt lat="47.847508" lon="16.893954">
        <ele>122.369568</ele>
        <time>2021-09-05T11:36:28.000Z</time>
      </trkpt>
      <trkpt lat="47.847674" lon="16.894289">
        <ele>122.411046</ele>
        <time>2021-09-05T11:36:31.000Z</time>
      </trkpt>
      <trkpt lat="47.847824" lon="16.894667">
        <ele>122.456217</ele>
        <time>2021-09-05T11:36:34.000Z</time>
      </trkpt>
      <trkpt lat="47.847902" lon="16.895093">
        <ele>122.500809</ele>
        <time>2021-09-05T11:36:37.000Z</time>
      </trkpt>
      <trkpt lat="47.847958" lon="16.895512">
        <ele>122.542342</ele>
        <time>2021-09-05T11:36:40.000Z</time>
      </trkpt>
      <trkpt lat="47.847945" lon="16.896147">
        <ele>122.551219</ele>
        <time>2021-09-05T11:36:45.000Z</time>
      </trkpt>
      <trkpt lat="47.847842" lon="16.896783">
        <ele>122.471473</ele>
        <time>2021-09-05T11:36:50.000Z</time>
      </trkpt>
      <trkpt lat="47.847682" lon="16.897235">
        <ele>122.409639</ele>
        <time>2021-09-05T11:36:54.000Z</time>
      </trkpt>
      <trkpt lat="47.847448" lon="16.89764">
        <ele>122.344146</ele>
        <time>2021-09-05T11:36:58.000Z</time>
      </trkpt>
      <trkpt lat="47.845785" lon="16.900178">
        <ele>121.651814</ele>
        <time>2021-09-05T11:37:24.000Z</time>
      </trkpt>
      <trkpt lat="47.844886" lon="16.901523">
        <ele>121.059688</ele>
        <time>2021-09-05T11:37:38.000Z</time>
      </trkpt>
      <trkpt lat="47.84468" lon="16.901838">
        <ele>120.9228</ele>
        <time>2021-09-05T11:37:41.000Z</time>
      </trkpt>
      <trkpt lat="47.842703" lon="16.904841">
        <ele>120.050185</ele>
        <time>2021-09-05T11:38:12.000Z</time>
      </trkpt>
      <trkpt lat="47.839756" lon="16.909344">
        <ele>120.482788</ele>
        <time>2021-09-05T11:38:59.000Z</time>
      </trkpt>
      <trkpt lat="47.838861" lon="16.910649">
        <ele>120.758204</ele>
        <time>2021-09-05T11:39:13.000Z</time>
      </trkpt>
      <trkpt lat="47.838866" lon="16.910658">
        <ele>120.758202</ele>
        <time>2021-09-05T11:39:13.000Z</time>
      </trkpt>
      <trkpt lat="47.838795" lon="16.910745">
        <ele>120.779303</ele>
        <time>2021-09-05T11:39:14.000Z</time>
      </trkpt>
      <trkpt lat="47.838784" lon="16.910778">
        <ele>120.784063</ele>
        <time>2021-09-05T11:39:14.000Z</time>
      </trkpt>
      <trkpt lat="47.83862" lon="16.911014">
        <ele>120.835493</ele>
        <time>2021-09-05T11:39:17.000Z</time>
      </trkpt>
      <trkpt lat="47.838399" lon="16.911383">
        <ele>120.910894</ele>
        <time>2021-09-05T11:39:21.000Z</time>
      </trkpt>
      <trkpt lat="47.838333" lon="16.911307">
        <ele>120.929214</ele>
        <time>2021-09-05T11:39:22.000Z</time>
      </trkpt>
      <trkpt lat="47.838013" lon="16.910877">
        <ele>120.958923</ele>
        <time>2021-09-05T11:39:27.000Z</time>
      </trkpt>
      <trkpt lat="47.832368" lon="16.902708">
        <ele>121.164129</ele>
        <time>2021-09-05T11:40:55.000Z</time>
      </trkpt>
      <trkpt lat="47.832286" lon="16.902581">
        <ele>121.161439</ele>
        <time>2021-09-05T11:40:56.000Z</time>
      </trkpt>
      <trkpt lat="47.832086" lon="16.902312">
        <ele>121.155596</ele>
        <time>2021-09-05T11:40:59.000Z</time>
      </trkpt>
      <trkpt lat="47.831619" lon="16.90162">
        <ele>121.145108</ele>
        <time>2021-09-05T11:41:06.000Z</time>
      </trkpt>
      <trkpt lat="47.830972" lon="16.900688">
        <ele>121.138202</ele>
        <time>2021-09-05T11:41:16.000Z</time>
      </trkpt>
      <trkpt lat="47.8269" lon="16.894827">
        <ele>121.381657</ele>
        <time>2021-09-05T11:42:19.000Z</time>
      </trkpt>
      <trkpt lat="47.826635" lon="16.894438">
        <ele>121.394802</ele>
        <time>2021-09-05T11:42:23.000Z</time>
      </trkpt>
      <trkpt lat="47.825964" lon="16.893491">
        <ele>121.370767</ele>
        <time>2021-09-05T11:42:33.000Z</time>
      </trkpt>
      <trkpt lat="47.824803" lon="16.89178">
        <ele>121.388117</ele>
        <time>2021-09-05T11:42:51.000Z</time>
      </trkpt>
      <trkpt lat="47.822264" lon="16.895647">
        <ele>121.535533</ele>
        <time>2021-09-05T11:43:31.000Z</time>
      </trkpt>
      <trkpt lat="47.819815" lon="16.899411">
        <ele>120.460143</ele>
        <time>2021-09-05T11:44:10.000Z</time>
      </trkpt>
      <trkpt lat="47.81871" lon="16.897802">
        <ele>120.398555</ele>
        <time>2021-09-05T11:44:27.000Z</time>
      </trkpt>
      <trkpt lat="47.818294" lon="16.897044">
        <ele>120.471242</ele>
        <time>2021-09-05T11:44:34.000Z</time>
      </trkpt>
      <trkpt lat="47.813513" lon="16.885823">
        <ele>119.957767</ele>
        <time>2021-09-05T11:46:13.000Z</time>
      </trkpt>
      <trkpt lat="47.813221" lon="16.885221">
        <ele>119.945431</ele>
        <time>2021-09-05T11:46:19.000Z</time>
      </trkpt>
      <trkpt lat="47.808587" lon="16.877069">
        <ele>120.742314</ele>
        <time>2021-09-05T11:47:39.000Z</time>
      </trkpt>
      <trkpt lat="47.80684" lon="16.875509">
        <ele>121.13042</ele>
        <time>2021-09-05T11:48:02.000Z</time>
      </trkpt>
      <trkpt lat="47.805348" lon="16.874187">
        <ele>120.953824</ele>
        <time>2021-09-05T11:48:21.000Z</time>
      </trkpt>
      <trkpt lat="47.805098" lon="16.873963">
        <ele>120.831525</ele>
        <time>2021-09-05T11:48:24.000Z</time>
      </trkpt>
      <trkpt lat="47.804196" lon="16.87318">
        <ele>120.293721</ele>
        <time>2021-09-05T11:48:36.000Z</time>
      </trkpt>
      <trkpt lat="47.803747" lon="16.872963">
        <ele>120.055486</ele>
        <time>2021-09-05T11:48:41.000Z</time>
      </trkpt>
      <trkpt lat="47.803317" lon="16.872837">
        <ele>119.91797</ele>
        <time>2021-09-05T11:48:46.000Z</time>
      </trkpt>
      <trkpt lat="47.802912" lon="16.872812">
        <ele>119.809983</ele>
        <time>2021-09-05T11:48:51.000Z</time>
      </trkpt>
      <trkpt lat="47.802522" lon="16.872894">
        <ele>119.702491</ele>
        <time>2021-09-05T11:48:55.000Z</time>
      </trkpt>
      <trkpt lat="47.802036" lon="16.87307">
        <ele>119.570621</ele>
        <time>2021-09-05T11:49:01.000Z</time>
      </trkpt>
      <trkpt lat="47.801654" lon="16.87338">
        <ele>119.456477</ele>
        <time>2021-09-05T11:49:06.000Z</time>
      </trkpt>
      <trkpt lat="47.80131" lon="16.873747">
        <ele>119.338907</ele>
        <time>2021-09-05T11:49:11.000Z</time>
      </trkpt>
      <trkpt lat="47.800158" lon="16.875318">
        <ele>118.918176</ele>
        <time>2021-09-05T11:49:28.000Z</time>
      </trkpt>
      <trkpt lat="47.799781" lon="16.875695">
        <ele>118.794854</ele>
        <time>2021-09-05T11:49:33.000Z</time>
      </trkpt>
      <trkpt lat="47.799345" lon="16.875985">
        <ele>118.665462</ele>
        <time>2021-09-05T11:49:38.000Z</time>
      </trkpt>
      <trkpt lat="47.798762" lon="16.876175">
        <ele>118.570019</ele>
        <time>2021-09-05T11:49:45.000Z</time>
      </trkpt>
      <trkpt lat="47.798372" lon="16.876185">
        <ele>118.58315</ele>
        <time>2021-09-05T11:49:49.000Z</time>
      </trkpt>
      <trkpt lat="47.797578" lon="16.875936">
        <ele>118.611805</ele>
        <time>2021-09-05T11:49:58.000Z</time>
      </trkpt>
      <trkpt lat="47.797357" lon="16.875809">
        <ele>118.620031</ele>
        <time>2021-09-05T11:50:01.000Z</time>
      </trkpt>
      <trkpt lat="47.794145" lon="16.87395">
        <ele>119.218055</ele>
        <time>2021-09-05T11:50:39.000Z</time>
      </trkpt>
      <trkpt lat="47.792161" lon="16.872784">
        <ele>119.111912</ele>
        <time>2021-09-05T11:51:03.000Z</time>
      </trkpt>
      <trkpt lat="47.791038" lon="16.872103">
        <ele>118.729871</ele>
        <time>2021-09-05T11:51:16.000Z</time>
      </trkpt>
      <trkpt lat="47.790471" lon="16.871695">
        <ele>118.550904</ele>
        <time>2021-09-05T11:51:23.000Z</time>
      </trkpt>
      <trkpt lat="47.790083" lon="16.871401">
        <ele>118.526134</ele>
        <time>2021-09-05T11:51:28.000Z</time>
      </trkpt>
      <trkpt lat="47.789089" lon="16.87063">
        <ele>118.462693</ele>
        <time>2021-09-05T11:51:40.000Z</time>
      </trkpt>
      <trkpt lat="47.788569" lon="16.870188">
        <ele>118.487299</ele>
        <time>2021-09-05T11:51:47.000Z</time>
      </trkpt>
      <trkpt lat="47.788206" lon="16.869726">
        <ele>118.523858</ele>
        <time>2021-09-05T11:51:52.000Z</time>
      </trkpt>
      <trkpt lat="47.787663" lon="16.868762">
        <ele>118.587115</ele>
        <time>2021-09-05T11:52:01.000Z</time>
      </trkpt>
      <trkpt lat="47.78748" lon="16.868344">
        <ele>118.563128</ele>
        <time>2021-09-05T11:52:05.000Z</time>
      </trkpt>
      <trkpt lat="47.786348" lon="16.864612">
        <ele>118.351693</ele>
        <time>2021-09-05T11:52:36.000Z</time>
      </trkpt>
      <trkpt lat="47.786051" lon="16.863741">
        <ele>118.324842</ele>
        <time>2021-09-05T11:52:43.000Z</time>
      </trkpt>
      <trkpt lat="47.785365" lon="16.861668">
        <ele>118.454322</ele>
        <time>2021-09-05T11:53:00.000Z</time>
      </trkpt>
      <trkpt lat="47.78453" lon="16.859735">
        <ele>118.770827</ele>
        <time>2021-09-05T11:53:17.000Z</time>
      </trkpt>
      <trkpt lat="47.783873" lon="16.858118">
        <ele>118.703209</ele>
        <time>2021-09-05T11:53:31.000Z</time>
      </trkpt>
      <trkpt lat="47.781361" lon="16.852244">
        <ele>117.778699</ele>
        <time>2021-09-05T11:54:23.000Z</time>
      </trkpt>
      <trkpt lat="47.780842" lon="16.851173">
        <ele>117.728662</ele>
        <time>2021-09-05T11:54:33.000Z</time>
      </trkpt>
      <trkpt lat="47.780556" lon="16.850678">
        <ele>117.703699</ele>
        <time>2021-09-05T11:54:38.000Z</time>
      </trkpt>
      <trkpt lat="47.779489" lon="16.84977">
        <ele>117.870069</ele>
        <time>2021-09-05T11:54:52.000Z</time>
      </trkpt>
      <trkpt lat="47.779194" lon="16.849552">
        <ele>117.937664</ele>
        <time>2021-09-05T11:54:56.000Z</time>
      </trkpt>
      <trkpt lat="47.778506" lon="16.849111">
        <ele>118.056644</ele>
        <time>2021-09-05T11:55:04.000Z</time>
      </trkpt>
      <trkpt lat="47.777844" lon="16.848717">
        <ele>118.094709</ele>
        <time>2021-09-05T11:55:12.000Z</time>
      </trkpt>
      <trkpt lat="47.77581" lon="16.847362">
        <ele>117.714362</ele>
        <time>2021-09-05T11:55:37.000Z</time>
      </trkpt>
      <trkpt lat="47.775493" lon="16.847169">
        <ele>117.607282</ele>
        <time>2021-09-05T11:55:41.000Z</time>
      </trkpt>
      <trkpt lat="47.773931" lon="16.845891">
        <ele>116.241889</ele>
        <time>2021-09-05T11:56:01.000Z</time>
      </trkpt>
      <trkpt lat="47.773644" lon="16.84567">
        <ele>115.921573</ele>
        <time>2021-09-05T11:56:05.000Z</time>
      </trkpt>
      <trkpt lat="47.77336" lon="16.845498">
        <ele>115.556351</ele>
        <time>2021-09-05T11:56:08.000Z</time>
      </trkpt>
      <trkpt lat="47.773313" lon="16.845363">
        <ele>115.447128</ele>
        <time>2021-09-05T11:56:09.000Z</time>
      </trkpt>
      <trkpt lat="47.773063" lon="16.844703">
        <ele>114.864164</ele>
        <time>2021-09-05T11:56:15.000Z</time>
      </trkpt>
      <trkpt lat="47.773034" lon="16.84448">
        <ele>114.692366</ele>
        <time>2021-09-05T11:56:17.000Z</time>
      </trkpt>
      <trkpt lat="47.773056" lon="16.844282">
        <ele>114.543023</ele>
        <time>2021-09-05T11:56:18.000Z</time>
      </trkpt>
      <trkpt lat="47.773205" lon="16.844091">
        <ele>114.308699</ele>
        <time>2021-09-05T11:56:20.000Z</time>
      </trkpt>
      <trkpt lat="47.773386" lon="16.843725">
        <ele>114.078549</ele>
        <time>2021-09-05T11:56:23.000Z</time>
      </trkpt>
      <trkpt lat="47.773548" lon="16.843161">
        <ele>114.049634</ele>
        <time>2021-09-05T11:56:28.000Z</time>
      </trkpt>
      <trkpt lat="47.773748" lon="16.841727">
        <ele>113.981718</ele>
        <time>2021-09-05T11:56:39.000Z</time>
      </trkpt>
      <trkpt lat="47.773906" lon="16.84118">
        <ele>114.06206</ele>
        <time>2021-09-05T11:56:43.000Z</time>
      </trkpt>
      <trkpt lat="47.774024" lon="16.840975">
        <ele>114.228429</ele>
        <time>2021-09-05T11:56:45.000Z</time>
      </trkpt>
      <trkpt lat="47.774352" lon="16.840559">
        <ele>114.607742</ele>
        <time>2021-09-05T11:56:50.000Z</time>
      </trkpt>
      <trkpt lat="47.775271" lon="16.839603">
        <ele>115.598929</ele>
        <time>2021-09-05T11:57:02.000Z</time>
      </trkpt>
      <trkpt lat="47.776019" lon="16.83887">
        <ele>116.180358</ele>
        <time>2021-09-05T11:57:12.000Z</time>
      </trkpt>
      <trkpt lat="47.776497" lon="16.838433">
        <ele>116.537703</ele>
        <time>2021-09-05T11:57:18.000Z</time>
      </trkpt>
      <trkpt lat="47.777794" lon="16.837294">
        <ele>117.193899</ele>
        <time>2021-09-05T11:57:35.000Z</time>
      </trkpt>
      <trkpt lat="47.77901" lon="16.836311">
        <ele>117.415601</ele>
        <time>2021-09-05T11:57:50.000Z</time>
      </trkpt>
      <trkpt lat="47.779063" lon="16.836271">
        <ele>117.415224</ele>
        <time>2021-09-05T11:57:51.000Z</time>
      </trkpt>
      <trkpt lat="47.779724" lon="16.835727">
        <ele>117.41073</ele>
        <time>2021-09-05T11:57:59.000Z</time>
      </trkpt>
      <trkpt lat="47.780944" lon="16.835565">
        <ele>117.071219</ele>
        <time>2021-09-05T11:58:13.000Z</time>
      </trkpt>
      <trkpt lat="47.78142" lon="16.835612">
        <ele>116.909206</ele>
        <time>2021-09-05T11:58:18.000Z</time>
      </trkpt>
      <trkpt lat="47.781603" lon="16.83553">
        <ele>116.850451</ele>
        <time>2021-09-05T11:58:20.000Z</time>
      </trkpt>
      <trkpt lat="47.781728" lon="16.835337">
        <ele>116.816125</ele>
        <time>2021-09-05T11:58:22.000Z</time>
      </trkpt>
      <trkpt lat="47.781802" lon="16.835076">
        <ele>116.812199</ele>
        <time>2021-09-05T11:58:24.000Z</time>
      </trkpt>
      <trkpt lat="47.781847" lon="16.833993">
        <ele>116.797602</ele>
        <time>2021-09-05T11:58:32.000Z</time>
      </trkpt>
      <trkpt lat="47.781935" lon="16.833559">
        <ele>116.791504</ele>
        <time>2021-09-05T11:58:35.000Z</time>
      </trkpt>
      <trkpt lat="47.782108" lon="16.833208">
        <ele>116.785667</ele>
        <time>2021-09-05T11:58:38.000Z</time>
      </trkpt>
      <trkpt lat="47.781989" lon="16.832895">
        <ele>116.796744</ele>
        <time>2021-09-05T11:58:41.000Z</time>
      </trkpt>
      <trkpt lat="47.781953" lon="16.832827">
        <ele>116.823083</ele>
        <time>2021-09-05T11:58:42.000Z</time>
      </trkpt>
      <trkpt lat="47.781924" lon="16.832754">
        <ele>116.843401</ele>
        <time>2021-09-05T11:58:43.000Z</time>
      </trkpt>
      <trkpt lat="47.78237" lon="16.830534">
        <ele>117.456158</ele>
        <time>2021-09-05T11:59:00.000Z</time>
      </trkpt>
      <trkpt lat="47.782496" lon="16.8303">
        <ele>117.506705</ele>
        <time>2021-09-05T11:59:02.000Z</time>
      </trkpt>
      <trkpt lat="47.783689" lon="16.829322">
        <ele>117.666231</ele>
        <time>2021-09-05T11:59:17.000Z</time>
      </trkpt>
      <trkpt lat="47.783696" lon="16.829236">
        <ele>117.673463</ele>
        <time>2021-09-05T11:59:18.000Z</time>
      </trkpt>
      <trkpt lat="47.783982" lon="16.826508">
        <ele>117.461155</ele>
        <time>2021-09-05T11:59:39.000Z</time>
      </trkpt>
      <trkpt lat="47.783941" lon="16.826331">
        <ele>117.442982</ele>
        <time>2021-09-05T11:59:40.000Z</time>
      </trkpt>
      <trkpt lat="47.783816" lon="16.826173">
        <ele>117.439138</ele>
        <time>2021-09-05T11:59:42.000Z</time>
      </trkpt>
      <trkpt lat="47.783373" lon="16.826107">
        <ele>117.509163</ele>
        <time>2021-09-05T11:59:47.000Z</time>
      </trkpt>
      <trkpt lat="47.782841" lon="16.826079">
        <ele>117.595006</ele>
        <time>2021-09-05T11:59:53.000Z</time>
      </trkpt>
      <trkpt lat="47.782874" lon="16.825891">
        <ele>117.615863</ele>
        <time>2021-09-05T11:59:54.000Z</time>
      </trkpt>
      <trkpt lat="47.783416" lon="16.823282">
        <ele>118.40277</ele>
        <time>2021-09-05T12:00:14.000Z</time>
      </trkpt>
      <trkpt lat="47.784008" lon="16.820545">
        <ele>119.30219</ele>
        <time>2021-09-05T12:00:35.000Z</time>
      </trkpt>
      <trkpt lat="47.787055" lon="16.821911">
        <ele>118.730562</ele>
        <time>2021-09-05T12:01:10.000Z</time>
      </trkpt>
      <trkpt lat="47.790976" lon="16.823644">
        <ele>117.79765</ele>
        <time>2021-09-05T12:01:55.000Z</time>
      </trkpt>
      <trkpt lat="47.791784" lon="16.824023">
        <ele>117.765532</ele>
        <time>2021-09-05T12:02:04.000Z</time>
      </trkpt>
      <trkpt lat="47.792238" lon="16.824214">
        <ele>117.802175</ele>
        <time>2021-09-05T12:02:09.000Z</time>
      </trkpt>
      <trkpt lat="47.792314" lon="16.824243">
        <ele>117.808586</ele>
        <time>2021-09-05T12:02:10.000Z</time>
      </trkpt>
      <trkpt lat="47.795528" lon="16.825684">
        <ele>118.135409</ele>
        <time>2021-09-05T12:02:47.000Z</time>
      </trkpt>
      <trkpt lat="47.798357" lon="16.826953">
        <ele>118.599406</ele>
        <time>2021-09-05T12:03:20.000Z</time>
      </trkpt>
      <trkpt lat="47.803511" lon="16.829267">
        <ele>119.408346</ele>
        <time>2021-09-05T12:04:20.000Z</time>
      </trkpt>
      <trkpt lat="47.805759" lon="16.830271">
        <ele>119.154085</ele>
        <time>2021-09-05T12:04:46.000Z</time>
      </trkpt>
      <trkpt lat="47.806415" lon="16.827105">
        <ele>119.019625</ele>
        <time>2021-09-05T12:05:11.000Z</time>
      </trkpt>
      <trkpt lat="47.806916" lon="16.824736">
        <ele>118.97266</ele>
        <time>2021-09-05T12:05:30.000Z</time>
      </trkpt>
      <trkpt lat="47.807413" lon="16.822437">
        <ele>118.911974</ele>
        <time>2021-09-05T12:05:48.000Z</time>
      </trkpt>
      <trkpt lat="47.807441" lon="16.822223">
        <ele>118.905226</ele>
        <time>2021-09-05T12:05:50.000Z</time>
      </trkpt>
      <trkpt lat="47.807579" lon="16.822269">
        <ele>118.899373</ele>
        <time>2021-09-05T12:05:52.000Z</time>
      </trkpt>
      <trkpt lat="47.813857" lon="16.823916">
        <ele>118.555095</ele>
        <time>2021-09-05T12:07:03.000Z</time>
      </trkpt>
      <trkpt lat="47.818178" lon="16.825035">
        <ele>117.847861</ele>
        <time>2021-09-05T12:07:52.000Z</time>
      </trkpt>
      <trkpt lat="47.820824" lon="16.82573">
        <ele>117.761426</ele>
        <time>2021-09-05T12:08:22.000Z</time>
      </trkpt>
      <trkpt lat="47.823275" lon="16.826271">
        <ele>118.929905</ele>
        <time>2021-09-05T12:08:50.000Z</time>
      </trkpt>
      <trkpt lat="47.824161" lon="16.826611">
        <ele>119.447012</ele>
        <time>2021-09-05T12:09:00.000Z</time>
      </trkpt>
      <trkpt lat="47.824501" lon="16.82677">
        <ele>119.53178</ele>
        <time>2021-09-05T12:09:04.000Z</time>
      </trkpt>
      <trkpt lat="47.82459" lon="16.826838">
        <ele>119.546597</ele>
        <time>2021-09-05T12:09:05.000Z</time>
      </trkpt>
      <trkpt lat="47.824857" lon="16.826999">
        <ele>119.58756</ele>
        <time>2021-09-05T12:09:08.000Z</time>
      </trkpt>
      <trkpt lat="47.825284" lon="16.827331">
        <ele>119.655752</ele>
        <time>2021-09-05T12:09:13.000Z</time>
      </trkpt>
      <trkpt lat="47.826194" lon="16.828224">
        <ele>119.549155</ele>
        <time>2021-09-05T12:09:25.000Z</time>
      </trkpt>
      <trkpt lat="47.828167" lon="16.830788">
        <ele>118.222711</ele>
        <time>2021-09-05T12:09:54.000Z</time>
      </trkpt>
      <trkpt lat="47.828936" lon="16.831539">
        <ele>117.766621</ele>
        <time>2021-09-05T12:10:04.000Z</time>
      </trkpt>
      <trkpt lat="47.829234" lon="16.831799">
        <ele>117.620443</ele>
        <time>2021-09-05T12:10:08.000Z</time>
      </trkpt>
      <trkpt lat="47.829608" lon="16.832085">
        <ele>117.439395</ele>
        <time>2021-09-05T12:10:13.000Z</time>
      </trkpt>
      <trkpt lat="47.831818" lon="16.833746">
        <ele>116.598788</ele>
        <time>2021-09-05T12:10:41.000Z</time>
      </trkpt>
      <trkpt lat="47.832081" lon="16.833985">
        <ele>116.632966</ele>
        <time>2021-09-05T12:10:44.000Z</time>
      </trkpt>
      <trkpt lat="47.832688" lon="16.834505">
        <ele>116.71129</ele>
        <time>2021-09-05T12:10:52.000Z</time>
      </trkpt>
      <trkpt lat="47.833444" lon="16.835342">
        <ele>116.79693</ele>
        <time>2021-09-05T12:11:02.000Z</time>
      </trkpt>
      <trkpt lat="47.833823" lon="16.835832">
        <ele>116.792027</ele>
        <time>2021-09-05T12:11:08.000Z</time>
      </trkpt>
      <trkpt lat="47.834757" lon="16.837231">
        <ele>116.82291</ele>
        <time>2021-09-05T12:11:23.000Z</time>
      </trkpt>
      <trkpt lat="47.835369" lon="16.838213">
        <ele>117.016181</ele>
        <time>2021-09-05T12:11:33.000Z</time>
      </trkpt>
      <trkpt lat="47.835393" lon="16.838251">
        <ele>117.023824</ele>
        <time>2021-09-05T12:11:33.000Z</time>
      </trkpt>
      <trkpt lat="47.835512" lon="16.83839">
        <ele>117.055665</ele>
        <time>2021-09-05T12:11:35.000Z</time>
      </trkpt>
      <trkpt lat="47.835539" lon="16.838446">
        <ele>117.064476</ele>
        <time>2021-09-05T12:11:36.000Z</time>
      </trkpt>
      <trkpt lat="47.835729" lon="16.838722">
        <ele>117.122711</ele>
        <time>2021-09-05T12:11:39.000Z</time>
      </trkpt>
      <trkpt lat="47.836152" lon="16.83927">
        <ele>117.399895</ele>
        <time>2021-09-05T12:11:45.000Z</time>
      </trkpt>
      <trkpt lat="47.836705" lon="16.839801">
        <ele>117.828666</ele>
        <time>2021-09-05T12:11:52.000Z</time>
      </trkpt>
      <trkpt lat="47.837084" lon="16.840047">
        <ele>118.104128</ele>
        <time>2021-09-05T12:11:57.000Z</time>
      </trkpt>
      <trkpt lat="47.837164" lon="16.840083">
        <ele>118.154852</ele>
        <time>2021-09-05T12:11:58.000Z</time>
      </trkpt>
      <trkpt lat="47.837372" lon="16.840182">
        <ele>118.29633</ele>
        <time>2021-09-05T12:12:00.000Z</time>
      </trkpt>
      <trkpt lat="47.838176" lon="16.840412">
        <ele>118.703243</ele>
        <time>2021-09-05T12:12:09.000Z</time>
      </trkpt>
      <trkpt lat="47.8389" lon="16.840429">
        <ele>119.049875</ele>
        <time>2021-09-05T12:12:17.000Z</time>
      </trkpt>
      <trkpt lat="47.83973" lon="16.840238">
        <ele>119.327595</ele>
        <time>2021-09-05T12:12:26.000Z</time>
      </trkpt>
      <trkpt lat="47.840787" lon="16.83983">
        <ele>119.595877</ele>
        <time>2021-09-05T12:12:38.000Z</time>
      </trkpt>
      <trkpt lat="47.8417" lon="16.839315">
        <ele>119.729398</ele>
        <time>2021-09-05T12:12:49.000Z</time>
      </trkpt>
      <trkpt lat="47.843649" lon="16.837469">
        <ele>119.882991</ele>
        <time>2021-09-05T12:13:15.000Z</time>
      </trkpt>
      <trkpt lat="47.844219" lon="16.837011">
        <ele>119.898271</ele>
        <time>2021-09-05T12:13:22.000Z</time>
      </trkpt>
      <trkpt lat="47.844375" lon="16.836917">
        <ele>119.898458</ele>
        <time>2021-09-05T12:13:24.000Z</time>
      </trkpt>
      <trkpt lat="47.844481" lon="16.836867">
        <ele>119.898582</ele>
        <time>2021-09-05T12:13:25.000Z</time>
      </trkpt>
      <trkpt lat="47.845317" lon="16.836653">
        <ele>119.899439</ele>
        <time>2021-09-05T12:13:34.000Z</time>
      </trkpt>
      <trkpt lat="47.848645" lon="16.836756">
        <ele>119.852528</ele>
        <time>2021-09-05T12:14:11.000Z</time>
      </trkpt>
      <trkpt lat="47.848925" lon="16.836768">
        <ele>119.839053</ele>
        <time>2021-09-05T12:14:14.000Z</time>
      </trkpt>
      <trkpt lat="47.848993" lon="16.836757">
        <ele>119.836329</ele>
        <time>2021-09-05T12:14:15.000Z</time>
      </trkpt>
      <trkpt lat="47.849052" lon="16.836755">
        <ele>119.833672</ele>
        <time>2021-09-05T12:14:16.000Z</time>
      </trkpt>
      <trkpt lat="47.849495" lon="16.836712">
        <ele>119.802482</ele>
        <time>2021-09-05T12:14:21.000Z</time>
      </trkpt>
      <trkpt lat="47.849655" lon="16.836516">
        <ele>119.759549</ele>
        <time>2021-09-05T12:14:23.000Z</time>
      </trkpt>
      <trkpt lat="47.849704" lon="16.836456">
        <ele>119.744972</ele>
        <time>2021-09-05T12:14:24.000Z</time>
      </trkpt>
      <trkpt lat="47.8498" lon="16.836377">
        <ele>119.722303</ele>
        <time>2021-09-05T12:14:25.000Z</time>
      </trkpt>
      <trkpt lat="47.850151" lon="16.836119">
        <ele>119.637505</ele>
        <time>2021-09-05T12:14:29.000Z</time>
      </trkpt>
      <trkpt lat="47.850543" lon="16.83578">
        <ele>119.541063</ele>
        <time>2021-09-05T12:14:34.000Z</time>
      </trkpt>
      <trkpt lat="47.850683" lon="16.83564">
        <ele>119.504929</ele>
        <time>2021-09-05T12:14:36.000Z</time>
      </trkpt>
      <trkpt lat="47.850998" lon="16.835279">
        <ele>119.424088</ele>
        <time>2021-09-05T12:14:40.000Z</time>
      </trkpt>
      <trkpt lat="47.851146" lon="16.835119">
        <ele>119.400244</ele>
        <time>2021-09-05T12:14:42.000Z</time>
      </trkpt>
      <trkpt lat="47.851653" lon="16.834582">
        <ele>119.318771</ele>
        <time>2021-09-05T12:14:49.000Z</time>
      </trkpt>
      <trkpt lat="47.852378" lon="16.834116">
        <ele>119.214073</ele>
        <time>2021-09-05T12:14:58.000Z</time>
      </trkpt>
      <trkpt lat="47.852482" lon="16.834045">
        <ele>119.199706</ele>
        <time>2021-09-05T12:14:59.000Z</time>
      </trkpt>
      <trkpt lat="47.852527" lon="16.833972">
        <ele>119.183427</ele>
        <time>2021-09-05T12:15:00.000Z</time>
      </trkpt>
      <trkpt lat="47.852757" lon="16.834229">
        <ele>119.090701</ele>
        <time>2021-09-05T12:15:03.000Z</time>
      </trkpt>
      <trkpt lat="47.852869" lon="16.834021">
        <ele>119.030752</ele>
        <time>2021-09-05T12:15:05.000Z</time>
      </trkpt>
      <trkpt lat="47.852986" lon="16.833924">
        <ele>118.987417</ele>
        <time>2021-09-05T12:15:06.000Z</time>
      </trkpt>
      <trkpt lat="47.853051" lon="16.833895">
        <ele>118.966646</ele>
        <time>2021-09-05T12:15:07.000Z</time>
      </trkpt>
      <trkpt lat="47.853375" lon="16.83374">
        <ele>118.85412</ele>
        <time>2021-09-05T12:15:11.000Z</time>
      </trkpt>
      <trkpt lat="47.853444" lon="16.833716">
        <ele>118.829762</ele>
        <time>2021-09-05T12:15:12.000Z</time>
      </trkpt>
      <trkpt lat="47.853742" lon="16.833746">
        <ele>118.733071</ele>
        <time>2021-09-05T12:15:15.000Z</time>
      </trkpt>
      <trkpt lat="47.853839" lon="16.833696">
        <ele>118.697654</ele>
        <time>2021-09-05T12:15:16.000Z</time>
      </trkpt>
      <trkpt lat="47.853906" lon="16.833594">
        <ele>118.666664</ele>
        <time>2021-09-05T12:15:17.000Z</time>
      </trkpt>
      <trkpt lat="47.854259" lon="16.83301">
        <ele>118.548026</ele>
        <time>2021-09-05T12:15:23.000Z</time>
      </trkpt>
      <trkpt lat="47.854514" lon="16.832616">
        <ele>118.489887</ele>
        <time>2021-09-05T12:15:27.000Z</time>
      </trkpt>
      <trkpt lat="47.854618" lon="16.83246">
        <ele>118.467653</ele>
        <time>2021-09-05T12:15:29.000Z</time>
      </trkpt>
      <trkpt lat="47.854631" lon="16.832454">
        <ele>118.465253</ele>
        <time>2021-09-05T12:15:29.000Z</time>
      </trkpt>
      <trkpt lat="47.854973" lon="16.831916">
        <ele>118.38574</ele>
        <time>2021-09-05T12:15:35.000Z</time>
      </trkpt>
      <trkpt lat="47.855518" lon="16.831052">
        <ele>118.351141</ele>
        <time>2021-09-05T12:15:44.000Z</time>
      </trkpt>
      <trkpt lat="47.855697" lon="16.830748">
        <ele>118.376937</ele>
        <time>2021-09-05T12:15:47.000Z</time>
      </trkpt>
      <trkpt lat="47.855836" lon="16.830488">
        <ele>118.399746</ele>
        <time>2021-09-05T12:15:49.000Z</time>
      </trkpt>
      <trkpt lat="47.855856" lon="16.830475">
        <ele>118.402347</ele>
        <time>2021-09-05T12:15:49.000Z</time>
      </trkpt>
      <trkpt lat="47.855908" lon="16.830388">
        <ele>118.409942</ele>
        <time>2021-09-05T12:15:50.000Z</time>
      </trkpt>
      <trkpt lat="47.855973" lon="16.830278">
        <ele>118.418372</ele>
        <time>2021-09-05T12:15:51.000Z</time>
      </trkpt>
      <trkpt lat="47.856004" lon="16.830215">
        <ele>118.42335</ele>
        <time>2021-09-05T12:15:52.000Z</time>
      </trkpt>
      <trkpt lat="47.855995" lon="16.830172">
        <ele>118.426661</ele>
        <time>2021-09-05T12:15:52.000Z</time>
      </trkpt>
      <trkpt lat="47.85583" lon="16.82996">
        <ele>118.448204</ele>
        <time>2021-09-05T12:15:54.000Z</time>
      </trkpt>
      <trkpt lat="47.856016" lon="16.829417">
        <ele>118.489058</ele>
        <time>2021-09-05T12:15:59.000Z</time>
      </trkpt>
      <trkpt lat="47.856037" lon="16.829361">
        <ele>118.49125</ele>
        <time>2021-09-05T12:15:59.000Z</time>
      </trkpt>
      <trkpt lat="47.856214" lon="16.828909">
        <ele>118.408054</ele>
        <time>2021-09-05T12:16:03.000Z</time>
      </trkpt>
      <trkpt lat="47.856222" lon="16.828879">
        <ele>118.402011</ele>
        <time>2021-09-05T12:16:03.000Z</time>
      </trkpt>
      <trkpt lat="47.856247" lon="16.828796">
        <ele>118.386766</ele>
        <time>2021-09-05T12:16:04.000Z</time>
      </trkpt>
      <trkpt lat="47.856649" lon="16.82914">
        <ele>118.274936</ele>
        <time>2021-09-05T12:16:09.000Z</time>
      </trkpt>
      <trkpt lat="47.856689" lon="16.829157">
        <ele>118.26716</ele>
        <time>2021-09-05T12:16:09.000Z</time>
      </trkpt>
      <trkpt lat="47.856701" lon="16.829172">
        <ele>118.261618</ele>
        <time>2021-09-05T12:16:09.000Z</time>
      </trkpt>
      <trkpt lat="47.856816" lon="16.829259">
        <ele>118.230073</ele>
        <time>2021-09-05T12:16:10.000Z</time>
      </trkpt>
      <trkpt lat="47.857445" lon="16.829851">
        <ele>118.06002</ele>
        <time>2021-09-05T12:16:18.000Z</time>
      </trkpt>
      <trkpt lat="47.857474" lon="16.829869">
        <ele>118.060103</ele>
        <time>2021-09-05T12:16:18.000Z</time>
      </trkpt>
      <trkpt lat="47.85755" lon="16.829964">
        <ele>118.060331</ele>
        <time>2021-09-05T12:16:19.000Z</time>
      </trkpt>
      <trkpt lat="47.857558" lon="16.83002">
        <ele>118.060411</ele>
        <time>2021-09-05T12:16:19.000Z</time>
      </trkpt>
      <trkpt lat="47.857561" lon="16.830055">
        <ele>118.060483</ele>
        <time>2021-09-05T12:16:19.000Z</time>
      </trkpt>
      <trkpt lat="47.857624" lon="16.830127">
        <ele>118.060636</ele>
        <time>2021-09-05T12:16:20.000Z</time>
      </trkpt>
      <trkpt lat="47.857649" lon="16.830143">
        <ele>118.060716</ele>
        <time>2021-09-05T12:16:20.000Z</time>
      </trkpt>
      <trkpt lat="47.857693" lon="16.830136">
        <ele>118.060813</ele>
        <time>2021-09-05T12:16:20.000Z</time>
      </trkpt>
      <trkpt lat="47.857737" lon="16.83012">
        <ele>118.06089</ele>
        <time>2021-09-05T12:16:21.000Z</time>
      </trkpt>
      <trkpt lat="47.85776" lon="16.83009">
        <ele>118.060976</ele>
        <time>2021-09-05T12:16:21.000Z</time>
      </trkpt>
      <trkpt lat="47.857829" lon="16.830105">
        <ele>118.061121</ele>
        <time>2021-09-05T12:16:22.000Z</time>
      </trkpt>
      <trkpt lat="47.857918" lon="16.830163">
        <ele>118.061369</ele>
        <time>2021-09-05T12:16:23.000Z</time>
      </trkpt>
      <trkpt lat="47.858264" lon="16.830561">
        <ele>118.062369</ele>
        <time>2021-09-05T12:16:28.000Z</time>
      </trkpt>
      <trkpt lat="47.858331" lon="16.830625">
        <ele>118.062539</ele>
        <time>2021-09-05T12:16:29.000Z</time>
      </trkpt>
      <trkpt lat="47.858348" lon="16.830644">
        <ele>118.062575</ele>
        <time>2021-09-05T12:16:29.000Z</time>
      </trkpt>
      <trkpt lat="47.858367" lon="16.830664">
        <ele>118.062605</ele>
        <time>2021-09-05T12:16:29.000Z</time>
      </trkpt>
      <trkpt lat="47.85837" lon="16.830681">
        <ele>118.062654</ele>
        <time>2021-09-05T12:16:29.000Z</time>
      </trkpt>
      <trkpt lat="47.85842" lon="16.830713">
        <ele>118.062757</ele>
        <time>2021-09-05T12:16:30.000Z</time>
      </trkpt>
      <trkpt lat="47.858431" lon="16.830752">
        <ele>118.062835</ele>
        <time>2021-09-05T12:16:30.000Z</time>
      </trkpt>
      <trkpt lat="47.858439" lon="16.830801">
        <ele>118.062904</ele>
        <time>2021-09-05T12:16:30.000Z</time>
      </trkpt>
      <trkpt lat="47.858404" lon="16.830895">
        <ele>118.063073</ele>
        <time>2021-09-05T12:16:31.000Z</time>
      </trkpt>
      <trkpt lat="47.857624" lon="16.83232">
        <ele>118.238639</ele>
        <time>2021-09-05T12:16:45.000Z</time>
      </trkpt>
      <trkpt lat="47.857499" lon="16.832541">
        <ele>118.281814</ele>
        <time>2021-09-05T12:16:47.000Z</time>
      </trkpt>
      <trkpt lat="47.856091" lon="16.834823">
        <ele>118.780573</ele>
        <time>2021-09-05T12:17:10.000Z</time>
      </trkpt>
      <trkpt lat="47.85552" lon="16.835596">
        <ele>119.003618</ele>
        <time>2021-09-05T12:17:19.000Z</time>
      </trkpt>
      <trkpt lat="47.854641" lon="16.836678">
        <ele>119.397183</ele>
        <time>2021-09-05T12:17:32.000Z</time>
      </trkpt>
      <trkpt lat="47.854454" lon="16.836892">
        <ele>119.477838</ele>
        <time>2021-09-05T12:17:35.000Z</time>
      </trkpt>
      <trkpt lat="47.854385" lon="16.837103">
        <ele>119.533428</ele>
        <time>2021-09-05T12:17:37.000Z</time>
      </trkpt>
      <trkpt lat="47.854318" lon="16.837129">
        <ele>119.535109</ele>
        <time>2021-09-05T12:17:38.000Z</time>
      </trkpt>
      <trkpt lat="47.854176" lon="16.837291">
        <ele>119.537069</ele>
        <time>2021-09-05T12:17:40.000Z</time>
      </trkpt>
      <trkpt lat="47.854054" lon="16.837422">
        <ele>119.538754</ele>
        <time>2021-09-05T12:17:42.000Z</time>
      </trkpt>
      <trkpt lat="47.853963" lon="16.837536">
        <ele>119.540152</ele>
        <time>2021-09-05T12:17:43.000Z</time>
      </trkpt>
      <trkpt lat="47.853696" lon="16.837841">
        <ele>119.543888</ele>
        <time>2021-09-05T12:17:47.000Z</time>
      </trkpt>
      <trkpt lat="47.853568" lon="16.838">
        <ele>119.545833</ele>
        <time>2021-09-05T12:17:49.000Z</time>
      </trkpt>
      <trkpt lat="47.852864" lon="16.83889">
        <ele>119.578861</ele>
        <time>2021-09-05T12:17:59.000Z</time>
      </trkpt>
      <trkpt lat="47.852742" lon="16.839021">
        <ele>119.6025</ele>
        <time>2021-09-05T12:18:01.000Z</time>
      </trkpt>
      <trkpt lat="47.852542" lon="16.83924">
        <ele>119.640721</ele>
        <time>2021-09-05T12:18:04.000Z</time>
      </trkpt>
      <trkpt lat="47.852502" lon="16.8393">
        <ele>119.650495</ele>
        <time>2021-09-05T12:18:05.000Z</time>
      </trkpt>
      <trkpt lat="47.85238" lon="16.839424">
        <ele>119.67413</ele>
        <time>2021-09-05T12:18:07.000Z</time>
      </trkpt>
      <trkpt lat="47.852192" lon="16.839485">
        <ele>119.704721</ele>
        <time>2021-09-05T12:18:09.000Z</time>
      </trkpt>
      <trkpt lat="47.852058" lon="16.839444">
        <ele>119.72916</ele>
        <time>2021-09-05T12:18:11.000Z</time>
      </trkpt>
      <trkpt lat="47.851998" lon="16.839507">
        <ele>119.739457</ele>
        <time>2021-09-05T12:18:12.000Z</time>
      </trkpt>
      <trkpt lat="47.851793" lon="16.839691">
        <ele>119.778158</ele>
        <time>2021-09-05T12:18:15.000Z</time>
      </trkpt>
      <trkpt lat="47.85152" lon="16.839918">
        <ele>119.827964</ele>
        <time>2021-09-05T12:18:18.000Z</time>
      </trkpt>
      <trkpt lat="47.850635" lon="16.840723">
        <ele>119.779636</ele>
        <time>2021-09-05T12:18:30.000Z</time>
      </trkpt>
      <trkpt lat="47.850418" lon="16.840934">
        <ele>119.761323</ele>
        <time>2021-09-05T12:18:33.000Z</time>
      </trkpt>
      <trkpt lat="47.850209" lon="16.841266">
        <ele>119.741243</ele>
        <time>2021-09-05T12:18:36.000Z</time>
      </trkpt>
      <trkpt lat="47.850148" lon="16.84147">
        <ele>119.731565</ele>
        <time>2021-09-05T12:18:38.000Z</time>
      </trkpt>
      <trkpt lat="47.85" lon="16.84266">
        <ele>119.768062</ele>
        <time>2021-09-05T12:18:47.000Z</time>
      </trkpt>
      <trkpt lat="47.84859" lon="16.851989">
        <ele>120.248056</ele>
        <time>2021-09-05T12:19:58.000Z</time>
      </trkpt>
      <trkpt lat="47.8485" lon="16.852652">
        <ele>120.197454</ele>
        <time>2021-09-05T12:20:03.000Z</time>
      </trkpt>
      <trkpt lat="47.847787" lon="16.857457">
        <ele>119.672448</ele>
        <time>2021-09-05T12:20:40.000Z</time>
      </trkpt>
      <trkpt lat="47.847165" lon="16.861523">
        <ele>120.62267</ele>
        <time>2021-09-05T12:21:11.000Z</time>
      </trkpt>
      <trkpt lat="47.846963" lon="16.86277">
        <ele>120.830556</ele>
        <time>2021-09-05T12:21:21.000Z</time>
      </trkpt>
      <trkpt lat="47.846451" lon="16.866017">
        <ele>120.654551</ele>
        <time>2021-09-05T12:21:46.000Z</time>
      </trkpt>
      <trkpt lat="47.845541" lon="16.871993">
        <ele>120.598158</ele>
        <time>2021-09-05T12:22:32.000Z</time>
      </trkpt>
      <trkpt lat="47.845454" lon="16.872465">
        <ele>120.619575</ele>
        <time>2021-09-05T12:22:36.000Z</time>
      </trkpt>
      <trkpt lat="47.845365" lon="16.872968">
        <ele>120.64352</ele>
        <time>2021-09-05T12:22:40.000Z</time>
      </trkpt>
      <trkpt lat="47.845159" lon="16.874264">
        <ele>120.78978</ele>
        <time>2021-09-05T12:22:50.000Z</time>
      </trkpt>
      <trkpt lat="47.844005" lon="16.880915">
        <ele>121.456485</ele>
        <time>2021-09-05T12:23:41.000Z</time>
      </trkpt>
      <trkpt lat="47.84381" lon="16.882058">
        <ele>121.309243</ele>
        <time>2021-09-05T12:23:50.000Z</time>
      </trkpt>
      <trkpt lat="47.843304" lon="16.885048">
        <ele>120.779829</ele>
        <time>2021-09-05T12:24:13.000Z</time>
      </trkpt>
      <trkpt lat="47.843214" lon="16.88601">
        <ele>120.574001</ele>
        <time>2021-09-05T12:24:20.000Z</time>
      </trkpt>
      <trkpt lat="47.843235" lon="16.886487">
        <ele>120.591114</ele>
        <time>2021-09-05T12:24:24.000Z</time>
      </trkpt>
      <trkpt lat="47.843289" lon="16.886925">
        <ele>120.616379</ele>
        <time>2021-09-05T12:24:27.000Z</time>
      </trkpt>
      <trkpt lat="47.843358" lon="16.887347">
        <ele>120.641412</ele>
        <time>2021-09-05T12:24:30.000Z</time>
      </trkpt>
      <trkpt lat="47.843569" lon="16.888062">
        <ele>120.68597</ele>
        <time>2021-09-05T12:24:36.000Z</time>
      </trkpt>
      <trkpt lat="47.84402" lon="16.888926">
        <ele>120.834156</ele>
        <time>2021-09-05T12:24:44.000Z</time>
      </trkpt>
      <trkpt lat="47.84624" lon="16.892132">
        <ele>121.908574</ele>
        <time>2021-09-05T12:25:18.000Z</time>
      </trkpt>
      <trkpt lat="47.846302" lon="16.89222">
        <ele>121.936917</ele>
        <time>2021-09-05T12:25:19.000Z</time>
      </trkpt>
      <trkpt lat="47.847506" lon="16.89397">
        <ele>122.389238</ele>
        <time>2021-09-05T12:25:38.000Z</time>
      </trkpt>
      <trkpt lat="47.847686" lon="16.894275">
        <ele>122.445302</ele>
        <time>2021-09-05T12:25:41.000Z</time>
      </trkpt>
      <trkpt lat="47.847823" lon="16.894666">
        <ele>122.461834</ele>
        <time>2021-09-05T12:25:44.000Z</time>
      </trkpt>
      <trkpt lat="47.847914" lon="16.895095">
        <ele>122.478185</ele>
        <time>2021-09-05T12:25:47.000Z</time>
      </trkpt>
      <trkpt lat="47.847965" lon="16.895496">
        <ele>122.493396</ele>
        <time>2021-09-05T12:25:50.000Z</time>
      </trkpt>
      <trkpt lat="47.84795" lon="16.896144">
        <ele>122.516776</ele>
        <time>2021-09-05T12:25:55.000Z</time>
      </trkpt>
      <trkpt lat="47.847835" lon="16.896779">
        <ele>122.5325</ele>
        <time>2021-09-05T12:26:00.000Z</time>
      </trkpt>
      <trkpt lat="47.847679" lon="16.897226">
        <ele>122.446288</ele>
        <time>2021-09-05T12:26:04.000Z</time>
      </trkpt>
      <trkpt lat="47.847437" lon="16.897645">
        <ele>122.354996</ele>
        <time>2021-09-05T12:26:08.000Z</time>
      </trkpt>
      <trkpt lat="47.845786" lon="16.900183">
        <ele>121.631002</ele>
        <time>2021-09-05T12:26:34.000Z</time>
      </trkpt>
      <trkpt lat="47.844878" lon="16.901526">
        <ele>121.07137</ele>
        <time>2021-09-05T12:26:48.000Z</time>
      </trkpt>
      <trkpt lat="47.84467" lon="16.901834">
        <ele>120.925431</ele>
        <time>2021-09-05T12:26:51.000Z</time>
      </trkpt>
      <trkpt lat="47.842716" lon="16.904835">
        <ele>119.848705</ele>
        <time>2021-09-05T12:27:22.000Z</time>
      </trkpt>
      <trkpt lat="47.839739" lon="16.909331">
        <ele>120.485082</ele>
        <time>2021-09-05T12:28:09.000Z</time>
      </trkpt>
      <trkpt lat="47.838872" lon="16.910661">
        <ele>120.739743</ele>
        <time>2021-09-05T12:28:23.000Z</time>
      </trkpt>
      <trkpt lat="47.838867" lon="16.910656">
        <ele>120.739737</ele>
        <time>2021-09-05T12:28:23.000Z</time>
      </trkpt>
      <trkpt lat="47.838792" lon="16.910756">
        <ele>120.760258</ele>
        <time>2021-09-05T12:28:24.000Z</time>
      </trkpt>
      <trkpt lat="47.838785" lon="16.910767">
        <ele>120.76488</ele>
        <time>2021-09-05T12:28:24.000Z</time>
      </trkpt>
      <trkpt lat="47.838615" lon="16.911011">
        <ele>120.814928</ele>
        <time>2021-09-05T12:28:27.000Z</time>
      </trkpt>
      <trkpt lat="47.838396" lon="16.911381">
        <ele>120.888256</ele>
        <time>2021-09-05T12:28:31.000Z</time>
      </trkpt>
      <trkpt lat="47.838346" lon="16.911316">
        <ele>120.906096</ele>
        <time>2021-09-05T12:28:32.000Z</time>
      </trkpt>
      <trkpt lat="47.83802" lon="16.910876">
        <ele>121.003027</ele>
        <time>2021-09-05T12:28:37.000Z</time>
      </trkpt>
      <trkpt lat="47.832373" lon="16.902719">
        <ele>121.174056</ele>
        <time>2021-09-05T12:30:04.000Z</time>
      </trkpt>
      <trkpt lat="47.832288" lon="16.902593">
        <ele>121.168837</ele>
        <time>2021-09-05T12:30:05.000Z</time>
      </trkpt>
      <trkpt lat="47.832088" lon="16.902316">
        <ele>121.157474</ele>
        <time>2021-09-05T12:30:08.000Z</time>
      </trkpt>
      <trkpt lat="47.831624" lon="16.901624">
        <ele>121.12921</ele>
        <time>2021-09-05T12:30:15.000Z</time>
      </trkpt>
      <trkpt lat="47.830958" lon="16.90069">
        <ele>121.140421</ele>
        <time>2021-09-05T12:30:25.000Z</time>
      </trkpt>
      <trkpt lat="47.8269" lon="16.89483">
        <ele>121.373796</ele>
        <time>2021-09-05T12:31:28.000Z</time>
      </trkpt>
      <trkpt lat="47.82664" lon="16.894436">
        <ele>121.382189</ele>
        <time>2021-09-05T12:31:32.000Z</time>
      </trkpt>
      <trkpt lat="47.82598" lon="16.893486">
        <ele>121.38387</ele>
        <time>2021-09-05T12:31:42.000Z</time>
      </trkpt>
      <trkpt lat="47.824815" lon="16.891769">
        <ele>121.359081</ele>
        <time>2021-09-05T12:32:00.000Z</time>
      </trkpt>
      <trkpt lat="47.822275" lon="16.895662">
        <ele>121.615538</ele>
        <time>2021-09-05T12:32:41.000Z</time>
      </trkpt>
      <trkpt lat="47.81982" lon="16.899413">
        <ele>120.369595</ele>
        <time>2021-09-05T12:33:20.000Z</time>
      </trkpt>
      <trkpt lat="47.818705" lon="16.897806">
        <ele>120.443096</ele>
        <time>2021-09-05T12:33:37.000Z</time>
      </trkpt>
      <trkpt lat="47.818283" lon="16.89705">
        <ele>120.418227</ele>
        <time>2021-09-05T12:33:44.000Z</time>
      </trkpt>
      <trkpt lat="47.813509" lon="16.885834">
        <ele>119.955353</ele>
        <time>2021-09-05T12:35:23.000Z</time>
      </trkpt>
      <trkpt lat="47.813221" lon="16.885237">
        <ele>119.968675</ele>
        <time>2021-09-05T12:35:28.000Z</time>
      </trkpt>
      <trkpt lat="47.808584" lon="16.877085">
        <ele>120.760344</ele>
        <time>2021-09-05T12:36:48.000Z</time>
      </trkpt>
      <trkpt lat="47.806842" lon="16.875511">
        <ele>121.073997</ele>
        <time>2021-09-05T12:37:11.000Z</time>
      </trkpt>
      <trkpt lat="47.805352" lon="16.874186">
        <ele>120.86135</ele>
        <time>2021-09-05T12:37:30.000Z</time>
      </trkpt>
      <trkpt lat="47.805101" lon="16.873955">
        <ele>120.784382</ele>
        <time>2021-09-05T12:37:33.000Z</time>
      </trkpt>
      <trkpt lat="47.804188" lon="16.873183">
        <ele>120.345715</ele>
        <time>2021-09-05T12:37:45.000Z</time>
      </trkpt>
      <trkpt lat="47.803746" lon="16.872952">
        <ele>120.112763</ele>
        <time>2021-09-05T12:37:50.000Z</time>
      </trkpt>
      <trkpt lat="47.803314" lon="16.87284">
        <ele>119.886629</ele>
        <time>2021-09-05T12:37:55.000Z</time>
      </trkpt>
      <trkpt lat="47.802902" lon="16.872823">
        <ele>119.745421</ele>
        <time>2021-09-05T12:38:00.000Z</time>
      </trkpt>
      <trkpt lat="47.802508" lon="16.872901">
        <ele>119.663869</ele>
        <time>2021-09-05T12:38:04.000Z</time>
      </trkpt>
      <trkpt lat="47.802041" lon="16.873077">
        <ele>119.563812</ele>
        <time>2021-09-05T12:38:09.000Z</time>
      </trkpt>
      <trkpt lat="47.801662" lon="16.873366">
        <ele>119.477153</ele>
        <time>2021-09-05T12:38:14.000Z</time>
      </trkpt>
      <trkpt lat="47.801305" lon="16.873754">
        <ele>119.371077</ele>
        <time>2021-09-05T12:38:19.000Z</time>
      </trkpt>
      <trkpt lat="47.800158" lon="16.875329">
        <ele>118.88479</ele>
        <time>2021-09-05T12:38:36.000Z</time>
      </trkpt>
      <trkpt lat="47.799781" lon="16.87569">
        <ele>118.788026</ele>
        <time>2021-09-05T12:38:41.000Z</time>
      </trkpt>
      <trkpt lat="47.799352" lon="16.875991">
        <ele>118.697492</ele>
        <time>2021-09-05T12:38:46.000Z</time>
      </trkpt>
      <trkpt lat="47.798753" lon="16.87616">
        <ele>118.580784</ele>
        <time>2021-09-05T12:38:53.000Z</time>
      </trkpt>
      <trkpt lat="47.798387" lon="16.876187">
        <ele>118.517493</ele>
        <time>2021-09-05T12:38:57.000Z</time>
      </trkpt>
      <trkpt lat="47.797582" lon="16.875946">
        <ele>118.622064</ele>
        <time>2021-09-05T12:39:06.000Z</time>
      </trkpt>
      <trkpt lat="47.797357" lon="16.875805">
        <ele>118.652026</ele>
        <time>2021-09-05T12:39:09.000Z</time>
      </trkpt>
      <trkpt lat="47.794152" lon="16.873951">
        <ele>119.187835</ele>
        <time>2021-09-05T12:39:47.000Z</time>
      </trkpt>
      <trkpt lat="47.792153" lon="16.872775">
        <ele>119.052975</ele>
        <time>2021-09-05T12:40:11.000Z</time>
      </trkpt>
      <trkpt lat="47.791048" lon="16.872109">
        <ele>118.773767</ele>
        <time>2021-09-05T12:40:24.000Z</time>
      </trkpt>
      <trkpt lat="47.790483" lon="16.871701">
        <ele>118.591465</ele>
        <time>2021-09-05T12:40:31.000Z</time>
      </trkpt>
      <trkpt lat="47.790096" lon="16.871387">
        <ele>118.465507</ele>
        <time>2021-09-05T12:40:36.000Z</time>
      </trkpt>
      <trkpt lat="47.789096" lon="16.870622">
        <ele>118.490085</ele>
        <time>2021-09-05T12:40:49.000Z</time>
      </trkpt>
      <trkpt lat="47.788571" lon="16.87019">
        <ele>118.51312</ele>
        <time>2021-09-05T12:40:56.000Z</time>
      </trkpt>
      <trkpt lat="47.788194" lon="16.869724">
        <ele>118.526168</ele>
        <time>2021-09-05T12:41:01.000Z</time>
      </trkpt>
      <trkpt lat="47.787659" lon="16.868764">
        <ele>118.544884</ele>
        <time>2021-09-05T12:41:10.000Z</time>
      </trkpt>
      <trkpt lat="47.787476" lon="16.868346">
        <ele>118.552523</ele>
        <time>2021-09-05T12:41:14.000Z</time>
      </trkpt>
      <trkpt lat="47.78635" lon="16.864621">
        <ele>118.359509</ele>
        <time>2021-09-05T12:41:45.000Z</time>
      </trkpt>
      <trkpt lat="47.786049" lon="16.863741">
        <ele>118.343878</ele>
        <time>2021-09-05T12:41:52.000Z</time>
      </trkpt>
      <trkpt lat="47.785364" lon="16.861659">
        <ele>118.485828</ele>
        <time>2021-09-05T12:42:09.000Z</time>
      </trkpt>
      <trkpt lat="47.784537" lon="16.85972">
        <ele>118.736079</ele>
        <time>2021-09-05T12:42:26.000Z</time>
      </trkpt>
      <trkpt lat="47.783862" lon="16.858116">
        <ele>118.839086</ele>
        <time>2021-09-05T12:42:40.000Z</time>
      </trkpt>
      <trkpt lat="47.781365" lon="16.852249">
        <ele>117.793438</ele>
        <time>2021-09-05T12:43:32.000Z</time>
      </trkpt>
      <trkpt lat="47.780848" lon="16.851179">
        <ele>117.719922</ele>
        <time>2021-09-05T12:43:42.000Z</time>
      </trkpt>
      <trkpt lat="47.780548" lon="16.850692">
        <ele>117.731844</ele>
        <time>2021-09-05T12:43:47.000Z</time>
      </trkpt>
      <trkpt lat="47.779488" lon="16.849761">
        <ele>117.832883</ele>
        <time>2021-09-05T12:44:01.000Z</time>
      </trkpt>
      <trkpt lat="47.779192" lon="16.849558">
        <ele>117.910115</ele>
        <time>2021-09-05T12:44:05.000Z</time>
      </trkpt>
      <trkpt lat="47.778498" lon="16.849119">
        <ele>118.080543</ele>
        <time>2021-09-05T12:44:13.000Z</time>
      </trkpt>
      <trkpt lat="47.777851" lon="16.848704">
        <ele>118.141459</ele>
        <time>2021-09-05T12:44:21.000Z</time>
      </trkpt>
      <trkpt lat="47.775804" lon="16.847367">
        <ele>117.675819</ele>
        <time>2021-09-05T12:44:46.000Z</time>
      </trkpt>
      <trkpt lat="47.775499" lon="16.847162">
        <ele>117.517605</ele>
        <time>2021-09-05T12:44:50.000Z</time>
      </trkpt>
      <trkpt lat="47.773936" lon="16.845892">
        <ele>116.152296</ele>
        <time>2021-09-05T12:45:10.000Z</time>
      </trkpt>
      <trkpt lat="47.773653" lon="16.845675">
        <ele>115.847676</ele>
        <time>2021-09-05T12:45:14.000Z</time>
      </trkpt>
      <trkpt lat="47.773347" lon="16.845489">
        <ele>115.542301</ele>
        <time>2021-09-05T12:45:18.000Z</time>
      </trkpt>
      <trkpt lat="47.773317" lon="16.845366">
        <ele>115.450752</ele>
        <time>2021-09-05T12:45:19.000Z</time>
      </trkpt>
      <trkpt lat="47.773063" lon="16.844705">
        <ele>114.959252</ele>
        <time>2021-09-05T12:45:25.000Z</time>
      </trkpt>
      <trkpt lat="47.773033" lon="16.84448">
        <ele>114.814415</ele>
        <time>2021-09-05T12:45:27.000Z</time>
      </trkpt>
      <trkpt lat="47.773056" lon="16.844293">
        <ele>114.688496</ele>
        <time>2021-09-05T12:45:28.000Z</time>
      </trkpt>
      <trkpt lat="47.773195" lon="16.84409">
        <ele>114.490945</ele>
        <time>2021-09-05T12:45:30.000Z</time>
      </trkpt>
      <trkpt lat="47.773387" lon="16.843719">
        <ele>114.192506</ele>
        <time>2021-09-05T12:45:33.000Z</time>
      </trkpt>
      <trkpt lat="47.773551" lon="16.84316">
        <ele>113.791704</ele>
        <time>2021-09-05T12:45:38.000Z</time>
      </trkpt>
      <trkpt lat="47.773756" lon="16.841731">
        <ele>114.084367</ele>
        <time>2021-09-05T12:45:49.000Z</time>
      </trkpt>
      <trkpt lat="47.773899" lon="16.841175">
        <ele>114.23115</ele>
        <time>2021-09-05T12:45:53.000Z</time>
      </trkpt>
      <trkpt lat="47.774025" lon="16.840975">
        <ele>114.299153</ele>
        <time>2021-09-05T12:45:55.000Z</time>
      </trkpt>
      <trkpt lat="47.774348" lon="16.840563">
        <ele>114.531032</ele>
        <time>2021-09-05T12:46:00.000Z</time>
      </trkpt>
      <trkpt lat="47.775277" lon="16.839607">
        <ele>115.546753</ele>
        <time>2021-09-05T12:46:13.000Z</time>
      </trkpt>
      <trkpt lat="47.776026" lon="16.838874">
        <ele>116.229237</ele>
        <time>2021-09-05T12:46:23.000Z</time>
      </trkpt>
      <trkpt lat="47.776491" lon="16.838436">
        <ele>116.528126</ele>
        <time>2021-09-05T12:46:29.000Z</time>
      </trkpt>
      <trkpt lat="47.777782" lon="16.837306">
        <ele>117.180437</ele>
        <time>2021-09-05T12:46:46.000Z</time>
      </trkpt>
      <trkpt lat="47.779019" lon="16.836305">
        <ele>117.477955</ele>
        <time>2021-09-05T12:47:02.000Z</time>
      </trkpt>
      <trkpt lat="47.779059" lon="16.836267">
        <ele>117.468624</ele>
        <time>2021-09-05T12:47:03.000Z</time>
      </trkpt>
      <trkpt lat="47.779719" lon="16.835732">
        <ele>117.357495</ele>
        <time>2021-09-05T12:47:11.000Z</time>
      </trkpt>
      <trkpt lat="47.78094" lon="16.835563">
        <ele>117.10155</ele>
        <time>2021-09-05T12:47:25.000Z</time>
      </trkpt>
      <trkpt lat="47.781423" lon="16.83561">
        <ele>116.948218</ele>
        <time>2021-09-05T12:47:30.000Z</time>
      </trkpt>
      <trkpt lat="47.781586" lon="16.835525">
        <ele>116.892641</ele>
        <time>2021-09-05T12:47:32.000Z</time>
      </trkpt>
      <trkpt lat="47.78173" lon="16.835337">
        <ele>116.834903</ele>
        <time>2021-09-05T12:47:34.000Z</time>
      </trkpt>
      <trkpt lat="47.781807" lon="16.835065">
        <ele>116.774117</ele>
        <time>2021-09-05T12:47:36.000Z</time>
      </trkpt>
      <trkpt lat="47.781835" lon="16.833994">
        <ele>116.75583</ele>
        <time>2021-09-05T12:47:44.000Z</time>
      </trkpt>
      <trkpt lat="47.781938" lon="16.833567">
        <ele>116.808607</ele>
        <time>2021-09-05T12:47:47.000Z</time>
      </trkpt>
      <trkpt lat="47.782104" lon="16.833206">
        <ele>116.859288</ele>
        <time>2021-09-05T12:47:50.000Z</time>
      </trkpt>
      <trkpt lat="47.781992" lon="16.832908">
        <ele>116.899748</ele>
        <time>2021-09-05T12:47:53.000Z</time>
      </trkpt>
      <trkpt lat="47.781942" lon="16.832817">
        <ele>116.911326</ele>
        <time>2021-09-05T12:47:54.000Z</time>
      </trkpt>
      <trkpt lat="47.781923" lon="16.832741">
        <ele>116.920248</ele>
        <time>2021-09-05T12:47:55.000Z</time>
      </trkpt>
      <trkpt lat="47.782374" lon="16.830543">
        <ele>117.404976</ele>
        <time>2021-09-05T12:48:12.000Z</time>
      </trkpt>
      <trkpt lat="47.782504" lon="16.83031">
        <ele>117.478759</ele>
        <time>2021-09-05T12:48:14.000Z</time>
      </trkpt>
      <trkpt lat="47.783687" lon="16.829315">
        <ele>117.634956</ele>
        <time>2021-09-05T12:48:29.000Z</time>
      </trkpt>
      <trkpt lat="47.783688" lon="16.829234">
        <ele>117.633709</ele>
        <time>2021-09-05T12:48:30.000Z</time>
      </trkpt>
      <trkpt lat="47.783971" lon="16.826513">
        <ele>117.503218</ele>
        <time>2021-09-05T12:48:51.000Z</time>
      </trkpt>
      <trkpt lat="47.783948" lon="16.826339">
        <ele>117.489879</ele>
        <time>2021-09-05T12:48:52.000Z</time>
      </trkpt>
      <trkpt lat="47.783815" lon="16.826177">
        <ele>117.471234</ele>
        <time>2021-09-05T12:48:54.000Z</time>
      </trkpt>
      <trkpt lat="47.783378" lon="16.826095">
        <ele>117.421852</ele>
        <time>2021-09-05T12:48:59.000Z</time>
      </trkpt>
      <trkpt lat="47.782847" lon="16.826075">
        <ele>117.562612</ele>
        <time>2021-09-05T12:49:05.000Z</time>
      </trkpt>
      <trkpt lat="47.782868" lon="16.825886">
        <ele>117.604687</ele>
        <time>2021-09-05T12:49:06.000Z</time>
      </trkpt>
      <trkpt lat="47.783415" lon="16.823281">
        <ele>118.399906</ele>
        <time>2021-09-05T12:49:26.000Z</time>
      </trkpt>
      <trkpt lat="47.784009" lon="16.820553">
        <ele>119.239548</ele>
        <time>2021-09-05T12:49:47.000Z</time>
      </trkpt>
      <trkpt lat="47.787053" lon="16.821916">
        <ele>118.723761</ele>
        <time>2021-09-05T12:50:22.000Z</time>
      </trkpt>
      <trkpt lat="47.790973" lon="16.82366">
        <ele>117.832472</ele>
        <time>2021-09-05T12:51:07.000Z</time>
      </trkpt>
      <trkpt lat="47.791786" lon="16.824009">
        <ele>117.75934</ele>
        <time>2021-09-05T12:51:16.000Z</time>
      </trkpt>
      <trkpt lat="47.792227" lon="16.824207">
        <ele>117.782548</ele>
        <time>2021-09-05T12:51:21.000Z</time>
      </trkpt>
      <trkpt lat="47.792298" lon="16.824255">
        <ele>117.790394</ele>
        <time>2021-09-05T12:51:22.000Z</time>
      </trkpt>
      <trkpt lat="47.795525" lon="16.825682">
        <ele>118.123646</ele>
        <time>2021-09-05T12:51:59.000Z</time>
      </trkpt>
      <trkpt lat="47.79836" lon="16.826938">
        <ele>118.599227</ele>
        <time>2021-09-05T12:52:32.000Z</time>
      </trkpt>
      <trkpt lat="47.803511" lon="16.829266">
        <ele>119.37103</ele>
        <time>2021-09-05T12:53:32.000Z</time>
      </trkpt>
      <trkpt lat="47.805762" lon="16.830269">
        <ele>119.13227</ele>
        <time>2021-09-05T12:53:58.000Z</time>
      </trkpt>
      <trkpt lat="47.806412" lon="16.827103">
        <ele>119.016409</ele>
        <time>2021-09-05T12:54:23.000Z</time>
      </trkpt>
      <trkpt lat="47.806916" lon="16.824733">
        <ele>118.979177</ele>
        <time>2021-09-05T12:54:42.000Z</time>
      </trkpt>
      <trkpt lat="47.80741" lon="16.82243">
        <ele>118.909058</ele>
        <time>2021-09-05T12:55:00.000Z</time>
      </trkpt>
      <trkpt lat="47.807451" lon="16.822237">
        <ele>118.902334</ele>
        <time>2021-09-05T12:55:02.000Z</time>
      </trkpt>
      <trkpt lat="47.807571" lon="16.822253">
        <ele>118.896525</ele>
        <time>2021-09-05T12:55:03.000Z</time>
      </trkpt>
      <trkpt lat="47.813857" lon="16.823903">
        <ele>118.55277</ele>
        <time>2021-09-05T12:56:14.000Z</time>
      </trkpt>
      <trkpt lat="47.818173" lon="16.825037">
        <ele>117.840757</ele>
        <time>2021-09-05T12:57:03.000Z</time>
      </trkpt>
      <trkpt lat="47.820838" lon="16.825717">
        <ele>117.829474</ele>
        <time>2021-09-05T12:57:33.000Z</time>
      </trkpt>
      <trkpt lat="47.823286" lon="16.826259">
        <ele>118.91375</ele>
        <time>2021-09-05T12:58:01.000Z</time>
      </trkpt>
      <trkpt lat="47.824163" lon="16.826602">
        <ele>119.384438</ele>
        <time>2021-09-05T12:58:11.000Z</time>
      </trkpt>
      <trkpt lat="47.824493" lon="16.826777">
        <ele>119.562409</ele>
        <time>2021-09-05T12:58:15.000Z</time>
      </trkpt>
      <trkpt lat="47.8246" lon="16.826826">
        <ele>119.615914</ele>
        <time>2021-09-05T12:58:16.000Z</time>
      </trkpt>
      <trkpt lat="47.82487" lon="16.827002">
        <ele>119.71758</ele>
        <time>2021-09-05T12:58:19.000Z</time>
      </trkpt>
      <trkpt lat="47.825298" lon="16.827326">
        <ele>119.671865</ele>
        <time>2021-09-05T12:58:24.000Z</time>
      </trkpt>
      <trkpt lat="47.826194" lon="16.82823">
        <ele>119.568025</ele>
        <time>2021-09-05T12:58:36.000Z</time>
      </trkpt>
      <trkpt lat="47.828166" lon="16.830795">
        <ele>118.234129</ele>
        <time>2021-09-05T12:59:05.000Z</time>
      </trkpt>
      <trkpt lat="47.828926" lon="16.83154">
        <ele>117.759099</ele>
        <time>2021-09-05T12:59:15.000Z</time>
      </trkpt>
      <trkpt lat="47.829233" lon="16.831795">
        <ele>117.595006</ele>
        <time>2021-09-05T12:59:19.000Z</time>
      </trkpt>
      <trkpt lat="47.829619" lon="16.832091">
        <ele>117.42861</ele>
        <time>2021-09-05T12:59:24.000Z</time>
      </trkpt>
      <trkpt lat="47.831822" lon="16.833755">
        <ele>116.692911</ele>
        <time>2021-09-05T12:59:51.000Z</time>
      </trkpt>
      <trkpt lat="47.832076" lon="16.833987">
        <ele>116.62955</ele>
        <time>2021-09-05T12:59:54.000Z</time>
      </trkpt>
      <trkpt lat="47.832691" lon="16.834516">
        <ele>116.642315</ele>
        <time>2021-09-05T13:00:02.000Z</time>
      </trkpt>
      <trkpt lat="47.833452" lon="16.835346">
        <ele>116.787306</ele>
        <time>2021-09-05T13:00:12.000Z</time>
      </trkpt>
      <trkpt lat="47.83381" lon="16.835831">
        <ele>116.849477</ele>
        <time>2021-09-05T13:00:17.000Z</time>
      </trkpt>
      <trkpt lat="47.834774" lon="16.837229">
        <ele>116.816667</ele>
        <time>2021-09-05T13:00:32.000Z</time>
      </trkpt>
      <trkpt lat="47.835364" lon="16.83821">
        <ele>117.007036</ele>
        <time>2021-09-05T13:00:42.000Z</time>
      </trkpt>
      <trkpt lat="47.835389" lon="16.838238">
        <ele>117.020954</ele>
        <time>2021-09-05T13:00:42.000Z</time>
      </trkpt>
      <trkpt lat="47.835513" lon="16.838395">
        <ele>117.078932</ele>
        <time>2021-09-05T13:00:44.000Z</time>
      </trkpt>
      <trkpt lat="47.835531" lon="16.838443">
        <ele>117.094957</ele>
        <time>2021-09-05T13:00:44.000Z</time>
      </trkpt>
      <trkpt lat="47.835719" lon="16.838724">
        <ele>117.200967</ele>
        <time>2021-09-05T13:00:47.000Z</time>
      </trkpt>
      <trkpt lat="47.83615" lon="16.839285">
        <ele>117.425371</ele>
        <time>2021-09-05T13:00:53.000Z</time>
      </trkpt>
      <trkpt lat="47.836699" lon="16.839801">
        <ele>117.789856</ele>
        <time>2021-09-05T13:01:00.000Z</time>
      </trkpt>
      <trkpt lat="47.837098" lon="16.840055">
        <ele>118.060681</ele>
        <time>2021-09-05T13:01:05.000Z</time>
      </trkpt>
      <trkpt lat="47.837164" lon="16.840096">
        <ele>118.110571</ele>
        <time>2021-09-05T13:01:06.000Z</time>
      </trkpt>
      <trkpt lat="47.837373" lon="16.840194">
        <ele>118.249675</ele>
        <time>2021-09-05T13:01:08.000Z</time>
      </trkpt>
      <trkpt lat="47.838182" lon="16.840418">
        <ele>118.73797</ele>
        <time>2021-09-05T13:01:17.000Z</time>
      </trkpt>
      <trkpt lat="47.8389" lon="16.840431">
        <ele>119.023635</ele>
        <time>2021-09-05T13:01:25.000Z</time>
      </trkpt>
      <trkpt lat="47.839723" lon="16.840242">
        <ele>119.349595</ele>
        <time>2021-09-05T13:01:34.000Z</time>
      </trkpt>
      <trkpt lat="47.84079" lon="16.839826">
        <ele>119.58386</ele>
        <time>2021-09-05T13:01:46.000Z</time>
      </trkpt>
      <trkpt lat="47.841699" lon="16.83932">
        <ele>119.751529</ele>
        <time>2021-09-05T13:01:57.000Z</time>
      </trkpt>
      <trkpt lat="47.843654" lon="16.837454">
        <ele>119.881189</ele>
        <time>2021-09-05T13:02:23.000Z</time>
      </trkpt>
      <trkpt lat="47.844212" lon="16.837008">
        <ele>119.892212</ele>
        <time>2021-09-05T13:02:30.000Z</time>
      </trkpt>
      <trkpt lat="47.844385" lon="16.83691">
        <ele>119.895241</ele>
        <time>2021-09-05T13:02:32.000Z</time>
      </trkpt>
      <trkpt lat="47.844494" lon="16.836861">
        <ele>119.897244</ele>
        <time>2021-09-05T13:02:33.000Z</time>
      </trkpt>
      <trkpt lat="47.845313" lon="16.836647">
        <ele>119.899991</ele>
        <time>2021-09-05T13:02:42.000Z</time>
      </trkpt>
      <trkpt lat="47.848641" lon="16.836757">
        <ele>119.852265</ele>
        <time>2021-09-05T13:03:19.000Z</time>
      </trkpt>
      <trkpt lat="47.848936" lon="16.836768">
        <ele>119.819871</ele>
        <time>2021-09-05T13:03:22.000Z</time>
      </trkpt>
      <trkpt lat="47.848989" lon="16.836751">
        <ele>119.813333</ele>
        <time>2021-09-05T13:03:23.000Z</time>
      </trkpt>
      <trkpt lat="47.849037" lon="16.836751">
        <ele>119.806904</ele>
        <time>2021-09-05T13:03:24.000Z</time>
      </trkpt>
      <trkpt lat="47.849505" lon="16.836727">
        <ele>119.754207</ele>
        <time>2021-09-05T13:03:29.000Z</time>
      </trkpt>
      <trkpt lat="47.849654" lon="16.836517">
        <ele>119.731209</ele>
        <time>2021-09-05T13:03:31.000Z</time>
      </trkpt>
      <trkpt lat="47.849707" lon="16.836469">
        <ele>119.723381</ele>
        <time>2021-09-05T13:03:32.000Z</time>
      </trkpt>
      <trkpt lat="47.849789" lon="16.836382">
        <ele>119.711243</ele>
        <time>2021-09-05T13:03:33.000Z</time>
      </trkpt>
      <trkpt lat="47.850151" lon="16.836118">
        <ele>119.645775</ele>
        <time>2021-09-05T13:03:37.000Z</time>
      </trkpt>
      <trkpt lat="47.850548" lon="16.835775">
        <ele>119.557603</ele>
        <time>2021-09-05T13:03:42.000Z</time>
      </trkpt>
      <trkpt lat="47.850686" lon="16.83563">
        <ele>119.524545</ele>
        <time>2021-09-05T13:03:44.000Z</time>
      </trkpt>
      <trkpt lat="47.851004" lon="16.835281">
        <ele>119.44716</ele>
        <time>2021-09-05T13:03:48.000Z</time>
      </trkpt>
      <trkpt lat="47.851139" lon="16.835117">
        <ele>119.411832</ele>
        <time>2021-09-05T13:03:50.000Z</time>
      </trkpt>
      <trkpt lat="47.851636" lon="16.834585">
        <ele>119.303246</ele>
        <time>2021-09-05T13:03:57.000Z</time>
      </trkpt>
      <trkpt lat="47.852367" lon="16.83411">
        <ele>119.18467</ele>
        <time>2021-09-05T13:04:06.000Z</time>
      </trkpt>
      <trkpt lat="47.852481" lon="16.834037">
        <ele>119.168373</ele>
        <time>2021-09-05T13:04:07.000Z</time>
      </trkpt>
      <trkpt lat="47.852539" lon="16.833968">
        <ele>119.156551</ele>
        <time>2021-09-05T13:04:08.000Z</time>
      </trkpt>
      <trkpt lat="47.852761" lon="16.834232">
        <ele>119.114498</ele>
        <time>2021-09-05T13:04:11.000Z</time>
      </trkpt>
      <trkpt lat="47.852859" lon="16.834025">
        <ele>119.087307</ele>
        <time>2021-09-05T13:04:13.000Z</time>
      </trkpt>
      <trkpt lat="47.852992" lon="16.833932">
        <ele>119.057361</ele>
        <time>2021-09-05T13:04:15.000Z</time>
      </trkpt>
      <trkpt lat="47.853049" lon="16.833887">
        <ele>119.033426</ele>
        <time>2021-09-05T13:04:16.000Z</time>
      </trkpt>
      <trkpt lat="47.853366" lon="16.833738">
        <ele>118.903699</ele>
        <time>2021-09-05T13:04:20.000Z</time>
      </trkpt>
      <trkpt lat="47.853447" lon="16.833727">
        <ele>118.875615</ele>
        <time>2021-09-05T13:04:21.000Z</time>
      </trkpt>
      <trkpt lat="47.853733" lon="16.833759">
        <ele>118.764146</ele>
        <time>2021-09-05T13:04:24.000Z</time>
      </trkpt>
      <trkpt lat="47.853832" lon="16.833697">
        <ele>118.723307</ele>
        <time>2021-09-05T13:04:25.000Z</time>
      </trkpt>
      <trkpt lat="47.853897" lon="16.833594">
        <ele>118.687591</ele>
        <time>2021-09-05T13:04:26.000Z</time>
      </trkpt>
      <trkpt lat="47.854269" lon="16.833004">
        <ele>118.484688</ele>
        <time>2021-09-05T13:04:32.000Z</time>
      </trkpt>
      <trkpt lat="47.854517" lon="16.832614">
        <ele>118.391197</ele>
        <time>2021-09-05T13:04:36.000Z</time>
      </trkpt>
      <trkpt lat="47.854619" lon="16.832466">
        <ele>118.390557</ele>
        <time>2021-09-05T13:04:38.000Z</time>
      </trkpt>
      <trkpt lat="47.85463" lon="16.832447">
        <ele>118.390476</ele>
        <time>2021-09-05T13:04:38.000Z</time>
      </trkpt>
      <trkpt lat="47.854983" lon="16.831907">
        <ele>118.388128</ele>
        <time>2021-09-05T13:04:44.000Z</time>
      </trkpt>
      <trkpt lat="47.85551" lon="16.831053">
        <ele>118.384445</ele>
        <time>2021-09-05T13:04:53.000Z</time>
      </trkpt>
      <trkpt lat="47.855692" lon="16.830753">
        <ele>118.384253</ele>
        <time>2021-09-05T13:04:56.000Z</time>
      </trkpt>
      <trkpt lat="47.855852" lon="16.830502">
        <ele>118.390112</ele>
        <time>2021-09-05T13:04:59.000Z</time>
      </trkpt>
      <trkpt lat="47.855856" lon="16.830463">
        <ele>118.390781</ele>
        <time>2021-09-05T13:04:59.000Z</time>
      </trkpt>
      <trkpt lat="47.855924" lon="16.830387">
        <ele>118.392729</ele>
        <time>2021-09-05T13:05:00.000Z</time>
      </trkpt>
      <trkpt lat="47.855978" lon="16.830287">
        <ele>118.394887</ele>
        <time>2021-09-05T13:05:01.000Z</time>
      </trkpt>
      <trkpt lat="47.855994" lon="16.830227">
        <ele>118.396176</ele>
        <time>2021-09-05T13:05:01.000Z</time>
      </trkpt>
      <trkpt lat="47.855991" lon="16.830167">
        <ele>118.397035</ele>
        <time>2021-09-05T13:05:01.000Z</time>
      </trkpt>
      <trkpt lat="47.855818" lon="16.829973">
        <ele>118.40256</ele>
        <time>2021-09-05T13:05:03.000Z</time>
      </trkpt>
      <trkpt lat="47.856024" lon="16.829421">
        <ele>118.413058</ele>
        <time>2021-09-05T13:05:08.000Z</time>
      </trkpt>
      <trkpt lat="47.856038" lon="16.829356">
        <ele>118.414306</ele>
        <time>2021-09-05T13:05:09.000Z</time>
      </trkpt>
      <trkpt lat="47.856206" lon="16.8289">
        <ele>118.423032</ele>
        <time>2021-09-05T13:05:13.000Z</time>
      </trkpt>
      <trkpt lat="47.856235" lon="16.828885">
        <ele>118.423663</ele>
        <time>2021-09-05T13:05:13.000Z</time>
      </trkpt>
      <trkpt lat="47.856257" lon="16.828783">
        <ele>118.425267</ele>
        <time>2021-09-05T13:05:14.000Z</time>
      </trkpt>
      <trkpt lat="47.856656" lon="16.829123">
        <ele>118.326817</ele>
        <time>2021-09-05T13:05:19.000Z</time>
      </trkpt>
      <trkpt lat="47.856675" lon="16.829164">
        <ele>118.316698</ele>
        <time>2021-09-05T13:05:19.000Z</time>
      </trkpt>
      <trkpt lat="47.856697" lon="16.829168">
        <ele>118.309489</ele>
        <time>2021-09-05T13:05:19.000Z</time>
      </trkpt>
      <trkpt lat="47.85682" lon="16.829271">
        <ele>118.268506</ele>
        <time>2021-09-05T13:05:21.000Z</time>
      </trkpt>
      <trkpt lat="47.857445" lon="16.829852">
        <ele>118.038576</ele>
        <time>2021-09-05T13:05:29.000Z</time>
      </trkpt>
      <trkpt lat="47.857462" lon="16.829878">
        <ele>118.027665</ele>
        <time>2021-09-05T13:05:29.000Z</time>
      </trkpt>
      <trkpt lat="47.857555" lon="16.829974">
        <ele>117.995398</ele>
        <time>2021-09-05T13:05:30.000Z</time>
      </trkpt>
      <trkpt lat="47.857562" lon="16.830004">
        <ele>117.985693</ele>
        <time>2021-09-05T13:05:30.000Z</time>
      </trkpt>
      <trkpt lat="47.857569" lon="16.830052">
        <ele>117.974698</ele>
        <time>2021-09-05T13:05:30.000Z</time>
      </trkpt>
      <trkpt lat="47.857631" lon="16.830134">
        <ele>117.953045</ele>
        <time>2021-09-05T13:05:31.000Z</time>
      </trkpt>
      <trkpt lat="47.857663" lon="16.830138">
        <ele>117.942005</ele>
        <time>2021-09-05T13:05:31.000Z</time>
      </trkpt>
      <trkpt lat="47.857694" lon="16.830136">
        <ele>117.930092</ele>
        <time>2021-09-05T13:05:31.000Z</time>
      </trkpt>
      <trkpt lat="47.857734" lon="16.830117">
        <ele>117.918207</ele>
        <time>2021-09-05T13:05:31.000Z</time>
      </trkpt>
      <trkpt lat="47.857765" lon="16.830072">
        <ele>117.90625</ele>
        <time>2021-09-05T13:05:31.000Z</time>
      </trkpt>
      <trkpt lat="47.857818" lon="16.830106">
        <ele>117.885994</ele>
        <time>2021-09-05T13:05:32.000Z</time>
      </trkpt>
      <trkpt lat="47.857923" lon="16.830171">
        <ele>117.859101938</ele>
        <time>2021-09-05T13:05:33.000Z</time>
      </trkpt>
      <trkpt lat="47.858271" lon="16.830554">
        <ele>117.756781935</ele>
        <time>2021-09-05T13:05:38.000Z</time>
      </trkpt>
      <trkpt lat="47.858334" lon="16.830623">
        <ele>117.738290157</ele>
        <time>2021-09-05T13:05:39.000Z</time>
      </trkpt>
      <trkpt lat="47.858358" lon="16.83065">
        <ele>117.73117796</ele>
        <time>2021-09-05T13:05:39.000Z</time>
      </trkpt>
      <trkpt lat="47.858352" lon="16.830659">
        <ele>117.729164514</ele>
        <time>2021-09-05T13:05:39.000Z</time>
      </trkpt>
      <trkpt lat="47.858373" lon="16.830671">
        <ele>117.723844965</ele>
        <time>2021-09-05T13:05:39.000Z</time>
      </trkpt>
      <trkpt lat="47.858407" lon="16.830724">
        <ele>117.712208138</ele>
        <time>2021-09-05T13:05:40.000Z</time>
      </trkpt>
      <trkpt lat="47.858426" lon="16.83076">
        <ele>117.704939331</ele>
        <time>2021-09-05T13:05:40.000Z</time>
      </trkpt>
      <trkpt lat="47.85844" lon="16.830795">
        <ele>117.698472741</ele>
        <time>2021-09-05T13:05:40.000Z</time>
      </trkpt>
      <trkpt lat="47.858481" lon="16.830835">
        <ele>117.686882368</ele>
        <time>2021-09-05T13:05:41.000Z</time>
      </trkpt>
      <trkpt lat="47.858509" lon="16.830845">
        <ele>117.680072233</ele>
        <time>2021-09-05T13:05:41.000Z</time>
      </trkpt>
      <trkpt lat="47.858562" lon="16.830841">
        <ele>117.667520452</ele>
        <time>2021-09-05T13:05:42.000Z</time>
      </trkpt>
      <trkpt lat="47.858587" lon="16.830899">
        <ele>117.656580289</ele>
        <time>2021-09-05T13:05:43.000Z</time>
      </trkpt>
      <trkpt lat="47.85902" lon="16.831378">
        <ele>117.529037486</ele>
        <time>2021-09-05T13:05:49.000Z</time>
      </trkpt>
      <trkpt lat="47.859121" lon="16.831492">
        <ele>117.49907125</ele>
        <time>2021-09-05T13:05:50.000Z</time>
      </trkpt>
      <trkpt lat="47.859134" lon="16.831483">
        <ele>117.49568092</ele>
        <time>2021-09-05T13:05:50.000Z</time>
      </trkpt>
      <trkpt lat="47.859174" lon="16.831403">
        <ele>117.479847724</ele>
        <time>2021-09-05T13:05:51.000Z</time>
      </trkpt>
      <trkpt lat="47.859231" lon="16.831309">
        <ele>117.459740774</ele>
        <time>2021-09-05T13:05:52.000Z</time>
      </trkpt>
      <trkpt lat="47.859245" lon="16.831287">
        <ele>117.4549289</ele>
        <time>2021-09-05T13:05:52.000Z</time>
      </trkpt>
      <trkpt lat="47.859291" lon="16.831208">
        <ele>117.43832915</ele>
        <time>2021-09-05T13:05:53.000Z</time>
      </trkpt>
      <trkpt lat="47.859332" lon="16.831141">
        <ele>117.423938419</ele>
        <time>2021-09-05T13:05:54.000Z</time>
      </trkpt>
      <trkpt lat="47.859447" lon="16.830907">
        <ele>117.377907557</ele>
        <time>2021-09-05T13:05:56.000Z</time>
      </trkpt>
      <trkpt lat="47.859518" lon="16.830737">
        <ele>117.346129681</ele>
        <time>2021-09-05T13:05:57.000Z</time>
      </trkpt>
      <trkpt lat="47.859569" lon="16.830653">
        <ele>117.328151707</ele>
        <time>2021-09-05T13:05:58.000Z</time>
      </trkpt>
      <trkpt lat="47.859567" lon="16.830651">
        <ele>117.32758205</ele>
        <time>2021-09-05T13:05:58.000Z</time>
      </trkpt>
    </trkseg>
  </trk>
</gpx>

<!--
Performance optimized by W3 Total Cache. Learn more: https://www.boldgrid.com/w3-total-cache/?utm_source=w3tc&utm_medium=footer_comment&utm_campaign=free_plugin

Page Caching using Disk: Enhanced{w3tc_pagecache_reject_reason} 

Served from: www.aquabike.world @ 2026-05-10 03:01:48 by W3 Total Cache
-->